SIA391 LTFM-WSSS
Flight info
| Callsign | SIA391 |
|---|---|
| Flight time | 9h 44m |
| Altitude | 35000 |
| Route | VICEN1R/35L VICEN UT380 ASMAP UL333 LATGA UT363 GURBU UL615 ERZ UB374 INDUR N449 SULEL M747 BODKA P130 MAMED B449 DOLOS B475 RUBAD A846 RANAH L750 VELDT/N0491F370 L750 ZB G202 RK P628 IBANI L510 BIDEX/N0489F390 L510 GIVAL P628 VPL Y503 RINBA Y507 MAKNA Y511 TOPOR A464 ARAMA DCT TEBUN TEBUN1B |
| Aircraft | A359/H-SDE1E2E3GHIJ1J2J3J5M1P2RWXYZ/LB1D1 |
Departure
| Time | 2026-05-05 11:15 |
|---|---|
| Airport | İstanbul Airport (LTFM) |
Arrival
| Time | 2026-05-05 20:59 |
|---|---|
| Airport | Singapore Changi Airport (WSSS) |
| Time | Latitude | Longitude | Altitude | Speed | Heading |
|---|---|---|---|---|---|
| 2026-05-05 10:34 | 41.26473 | 28.74146 | 321 ft | 0 kts | 90° |
| 2026-05-05 11:02 | 41.26474 | 28.74115 | 318 ft | 4 kts | 90° |
| 2026-05-05 11:03 | 41.26474 | 28.74079 | 315 ft | 4 kts | 91° |
| 2026-05-05 11:03 | 41.26474 | 28.74045 | 315 ft | 3 kts | 90° |
| 2026-05-05 11:03 | 41.26473 | 28.74018 | 315 ft | 4 kts | 55° |
| 2026-05-05 11:03 | 41.26471 | 28.74008 | 315 ft | 4 kts | 359° |
| 2026-05-05 11:04 | 41.26450 | 28.74015 | 315 ft | 4 kts | 343° |
| 2026-05-05 11:04 | 41.26426 | 28.74023 | 318 ft | 2 kts | 359° |
| 2026-05-05 11:04 | 41.26424 | 28.74023 | 318 ft | 0 kts | 359° |
| 2026-05-05 11:07 | 41.26438 | 28.74023 | 319 ft | 6 kts | 359° |
| 2026-05-05 11:08 | 41.26503 | 28.74022 | 319 ft | 13 kts | 359° |
| 2026-05-05 11:08 | 41.26602 | 28.74020 | 319 ft | 15 kts | 359° |
| 2026-05-05 11:08 | 41.26718 | 28.74018 | 319 ft | 17 kts | 359° |
| 2026-05-05 11:08 | 41.26832 | 28.74016 | 319 ft | 13 kts | 359° |
| 2026-05-05 11:09 | 41.26876 | 28.73973 | 319 ft | 9 kts | 290° |
| 2026-05-05 11:09 | 41.26875 | 28.73861 | 319 ft | 16 kts | 268° |
| 2026-05-05 11:09 | 41.26873 | 28.73683 | 319 ft | 21 kts | 269° |
| 2026-05-05 11:09 | 41.26870 | 28.73470 | 319 ft | 24 kts | 269° |
| 2026-05-05 11:10 | 41.26868 | 28.73247 | 319 ft | 24 kts | 269° |
| 2026-05-05 11:10 | 41.26865 | 28.73052 | 316 ft | 9 kts | 269° |
| 2026-05-05 11:10 | 41.26843 | 28.72998 | 318 ft | 5 kts | 208° |
| 2026-05-05 11:10 | 41.26806 | 28.72991 | 318 ft | 7 kts | 180° |
| 2026-05-05 11:11 | 41.26745 | 28.72992 | 319 ft | 9 kts | 179° |
| 2026-05-05 11:11 | 41.26681 | 28.72993 | 319 ft | 9 kts | 179° |
| 2026-05-05 11:11 | 41.26626 | 28.72994 | 319 ft | 6 kts | 179° |
| 2026-05-05 11:11 | 41.26606 | 28.72985 | 320 ft | 0 kts | 218° |
| 2026-05-05 11:12 | 41.26603 | 28.72978 | 320 ft | 4 kts | 234° |
| 2026-05-05 11:12 | 41.26597 | 28.72902 | 322 ft | 12 kts | 268° |
| 2026-05-05 11:12 | 41.26594 | 28.72770 | 328 ft | 17 kts | 269° |
| 2026-05-05 11:12 | 41.26592 | 28.72603 | 330 ft | 18 kts | 269° |
| 2026-05-05 11:13 | 41.26609 | 28.72526 | 327 ft | 3 kts | 347° |
| 2026-05-05 11:13 | 41.26642 | 28.72517 | 328 ft | 6 kts | 355° |
| 2026-05-05 11:13 | 41.26651 | 28.72517 | 329 ft | 0 kts | 358° |
| 2026-05-05 11:14 | 41.26654 | 28.72517 | 327 ft | 5 kts | 358° |
| 2026-05-05 11:14 | 41.26868 | 28.72511 | 326 ft | 67 kts | 359° |
| 2026-05-05 11:14 | 41.27582 | 28.72499 | 322 ft | 136 kts | 359° |
| 2026-05-05 11:15 | 41.28668 | 28.72477 | 719 ft | 160 kts | 359° |
| 2026-05-05 11:15 | 41.29785 | 28.72451 | 1537 ft | 163 kts | 360° |
| 2026-05-05 11:15 | 41.30948 | 28.72434 | 2300 ft | 175 kts | 0° |
| 2026-05-05 11:15 | 41.32210 | 28.72443 | 2638 ft | 189 kts | 360° |
| 2026-05-05 11:16 | 41.33588 | 28.72459 | 2950 ft | 206 kts | 0° |
| 2026-05-05 11:16 | 41.35099 | 28.72473 | 3113 ft | 227 kts | 359° |
| 2026-05-05 11:16 | 41.36691 | 28.72006 | 3379 ft | 243 kts | 333° |
| 2026-05-05 11:16 | 41.37891 | 28.70413 | 3869 ft | 252 kts | 299° |
| 2026-05-05 11:17 | 41.38262 | 28.68117 | 4421 ft | 259 kts | 273° |
| 2026-05-05 11:17 | 41.38229 | 28.65697 | 4986 ft | 263 kts | 271° |
| 2026-05-05 11:17 | 41.38168 | 28.63250 | 5562 ft | 266 kts | 272° |
| 2026-05-05 11:17 | 41.38109 | 28.60807 | 6135 ft | 270 kts | 271° |
| 2026-05-05 11:18 | 41.37734 | 28.58328 | 6668 ft | 280 kts | 251° |
| 2026-05-05 11:18 | 41.36584 | 28.56199 | 7233 ft | 290 kts | 222° |
| 2026-05-05 11:18 | 41.34747 | 28.54965 | 7802 ft | 298 kts | 192° |
| 2026-05-05 11:18 | 41.32674 | 28.54906 | 8402 ft | 300 kts | 174° |
| 2026-05-05 11:19 | 41.30606 | 28.55070 | 8982 ft | 304 kts | 177° |
| 2026-05-05 11:19 | 41.28475 | 28.55167 | 9592 ft | 309 kts | 178° |
| 2026-05-05 11:19 | 41.26318 | 28.55312 | 10153 ft | 313 kts | 172° |
| 2026-05-05 11:19 | 41.24234 | 28.56246 | 10438 ft | 324 kts | 144° |
| 2026-05-05 11:20 | 41.22491 | 28.58200 | 10709 ft | 335 kts | 132° |
| 2026-05-05 11:20 | 41.20808 | 28.60435 | 10969 ft | 350 kts | 132° |
| 2026-05-05 11:20 | 41.19044 | 28.62761 | 11229 ft | 365 kts | 133° |
| 2026-05-05 11:20 | 41.17196 | 28.65164 | 11486 ft | 378 kts | 133° |
| 2026-05-05 11:21 | 41.15278 | 28.67635 | 11766 ft | 390 kts | 133° |
| 2026-05-05 11:21 | 41.13322 | 28.70174 | 12224 ft | 395 kts | 131° |
| 2026-05-05 11:21 | 41.11623 | 28.73030 | 12813 ft | 394 kts | 121° |
| 2026-05-05 11:21 | 41.10116 | 28.76075 | 13415 ft | 397 kts | 120° |
| 2026-05-05 11:22 | 41.08613 | 28.79172 | 13967 ft | 401 kts | 120° |
| 2026-05-05 11:22 | 41.07090 | 28.82295 | 14465 ft | 404 kts | 120° |
| 2026-05-05 11:22 | 41.05555 | 28.85431 | 14955 ft | 407 kts | 121° |
| 2026-05-05 11:22 | 41.03854 | 28.88460 | 15415 ft | 413 kts | 131° |
| 2026-05-05 11:23 | 41.01575 | 28.90805 | 15917 ft | 419 kts | 151° |
| 2026-05-05 11:23 | 40.98820 | 28.92072 | 16397 ft | 423 kts | 170° |
| 2026-05-05 11:23 | 40.95876 | 28.92190 | 16907 ft | 425 kts | 184° |
| 2026-05-05 11:23 | 40.92931 | 28.92442 | 17335 ft | 428 kts | 166° |
| 2026-05-05 11:24 | 40.90180 | 28.93915 | 17823 ft | 429 kts | 147° |
| 2026-05-05 11:24 | 40.87913 | 28.96445 | 18299 ft | 428 kts | 129° |
| 2026-05-05 11:24 | 40.86349 | 28.99780 | 18704 ft | 428 kts | 110° |
| 2026-05-05 11:24 | 40.85645 | 29.03579 | 19097 ft | 428 kts | 92° |
| 2026-05-05 11:25 | 40.85667 | 29.07507 | 19492 ft | 430 kts | 85° |
| 2026-05-05 11:25 | 40.85813 | 29.11464 | 19900 ft | 433 kts | 87° |
| 2026-05-05 11:25 | 40.85804 | 29.15463 | 20328 ft | 437 kts | 91° |
| 2026-05-05 11:25 | 40.85582 | 29.19489 | 20774 ft | 442 kts | 95° |
| 2026-05-05 11:26 | 40.85180 | 29.23529 | 21205 ft | 446 kts | 97° |
| 2026-05-05 11:26 | 40.84658 | 29.27575 | 21637 ft | 449 kts | 99° |
| 2026-05-05 11:26 | 40.84070 | 29.31641 | 22038 ft | 453 kts | 100° |
| 2026-05-05 11:26 | 40.83453 | 29.35737 | 22479 ft | 457 kts | 100° |
| 2026-05-05 11:27 | 40.82829 | 29.39867 | 22971 ft | 461 kts | 100° |
| 2026-05-05 11:27 | 40.82206 | 29.44038 | 23423 ft | 465 kts | 100° |
| 2026-05-05 11:27 | 40.81587 | 29.48241 | 23824 ft | 469 kts | 99° |
| 2026-05-05 11:27 | 40.80968 | 29.52475 | 24207 ft | 471 kts | 100° |
| 2026-05-05 11:28 | 40.80347 | 29.56734 | 24589 ft | 474 kts | 99° |
| 2026-05-05 11:28 | 40.79725 | 29.61019 | 24959 ft | 476 kts | 99° |
| 2026-05-05 11:28 | 40.79100 | 29.65323 | 25344 ft | 479 kts | 99° |
| 2026-05-05 11:28 | 40.78470 | 29.69648 | 25707 ft | 481 kts | 99° |
| 2026-05-05 11:29 | 40.77835 | 29.73992 | 26072 ft | 483 kts | 99° |
| 2026-05-05 11:29 | 40.77198 | 29.78355 | 26458 ft | 485 kts | 99° |
| 2026-05-05 11:29 | 40.76555 | 29.82735 | 26867 ft | 488 kts | 99° |
| 2026-05-05 11:29 | 40.75902 | 29.87143 | 27262 ft | 491 kts | 99° |
| 2026-05-05 11:30 | 40.75245 | 29.91560 | 27660 ft | 492 kts | 99° |
| 2026-05-05 11:30 | 40.74589 | 29.95998 | 28038 ft | 494 kts | 99° |
| 2026-05-05 11:30 | 40.73926 | 30.00458 | 28379 ft | 496 kts | 99° |
| 2026-05-05 11:30 | 40.73256 | 30.04932 | 28688 ft | 499 kts | 99° |
| 2026-05-05 11:31 | 40.72582 | 30.09424 | 29020 ft | 501 kts | 99° |
| 2026-05-05 11:31 | 40.71903 | 30.13933 | 29322 ft | 502 kts | 99° |
| 2026-05-05 11:31 | 40.71220 | 30.18458 | 29614 ft | 504 kts | 99° |
| 2026-05-05 11:31 | 40.70533 | 30.22999 | 29916 ft | 506 kts | 99° |
| 2026-05-05 11:32 | 40.69844 | 30.27543 | 30307 ft | 504 kts | 99° |
| 2026-05-05 11:32 | 40.69157 | 30.32065 | 30698 ft | 502 kts | 99° |
| 2026-05-05 11:32 | 40.68472 | 30.36574 | 31043 ft | 501 kts | 99° |
| 2026-05-05 11:32 | 40.67785 | 30.41073 | 31368 ft | 501 kts | 99° |
| 2026-05-05 11:33 | 40.67097 | 30.45560 | 31677 ft | 500 kts | 99° |
| 2026-05-05 11:33 | 40.66406 | 30.50047 | 31977 ft | 499 kts | 99° |
| 2026-05-05 11:33 | 40.65715 | 30.54531 | 32248 ft | 499 kts | 98° |
| 2026-05-05 11:33 | 40.65025 | 30.59000 | 32533 ft | 499 kts | 98° |
| 2026-05-05 11:34 | 40.64331 | 30.63478 | 32809 ft | 498 kts | 98° |
| 2026-05-05 11:34 | 40.63638 | 30.67939 | 33063 ft | 498 kts | 98° |
| 2026-05-05 11:34 | 40.62941 | 30.72407 | 33331 ft | 498 kts | 98° |
| 2026-05-05 11:34 | 40.62143 | 30.76837 | 33614 ft | 498 kts | 102° |
| 2026-05-05 11:35 | 40.61214 | 30.81230 | 33868 ft | 498 kts | 103° |
| 2026-05-05 11:35 | 40.60236 | 30.85592 | 34099 ft | 497 kts | 103° |
| 2026-05-05 11:35 | 40.59251 | 30.89949 | 34290 ft | 497 kts | 103° |
| 2026-05-05 11:35 | 40.58277 | 30.94317 | 34416 ft | 498 kts | 103° |
| 2026-05-05 11:36 | 40.57319 | 30.98690 | 34558 ft | 498 kts | 102° |
| 2026-05-05 11:36 | 40.56371 | 31.03072 | 34766 ft | 497 kts | 102° |
| 2026-05-05 11:36 | 40.55432 | 31.07450 | 34982 ft | 497 kts | 102° |
| 2026-05-05 11:37 | 40.53870 | 31.14755 | 35046 ft | 503 kts | 102° |
| 2026-05-05 11:37 | 40.51969 | 31.23629 | 35041 ft | 504 kts | 102° |
| 2026-05-05 11:38 | 40.50057 | 31.32484 | 35035 ft | 503 kts | 102° |
| 2026-05-05 11:38 | 40.48134 | 31.41325 | 35024 ft | 504 kts | 102° |
| 2026-05-05 11:39 | 40.46202 | 31.50187 | 35018 ft | 504 kts | 102° |
| 2026-05-05 11:39 | 40.44271 | 31.59038 | 35007 ft | 504 kts | 102° |
| 2026-05-05 11:40 | 40.42328 | 31.67886 | 35006 ft | 504 kts | 102° |
| 2026-05-05 11:40 | 40.40384 | 31.76714 | 35001 ft | 504 kts | 102° |
| 2026-05-05 11:41 | 40.38433 | 31.85535 | 34992 ft | 503 kts | 102° |
| 2026-05-05 11:41 | 40.36477 | 31.94346 | 34990 ft | 503 kts | 102° |
| 2026-05-05 11:42 | 40.34514 | 32.03152 | 34984 ft | 503 kts | 102° |
| 2026-05-05 11:42 | 40.32540 | 32.11953 | 34982 ft | 503 kts | 101° |
| 2026-05-05 11:43 | 40.30766 | 32.20813 | 34969 ft | 502 kts | 99° |
| 2026-05-05 11:43 | 40.29067 | 32.29690 | 34967 ft | 503 kts | 100° |
| 2026-05-05 11:44 | 40.27334 | 32.38574 | 34967 ft | 504 kts | 100° |
| 2026-05-05 11:44 | 40.25581 | 32.47387 | 34957 ft | 504 kts | 100° |
| 2026-05-05 11:45 | 40.23799 | 32.56266 | 34958 ft | 504 kts | 101° |
| 2026-05-05 11:45 | 40.22011 | 32.65138 | 34959 ft | 505 kts | 101° |
| 2026-05-05 11:46 | 40.20214 | 32.74021 | 34962 ft | 505 kts | 101° |
| 2026-05-05 11:46 | 40.18411 | 32.82904 | 34961 ft | 505 kts | 101° |
| 2026-05-05 11:47 | 40.16600 | 32.91789 | 34967 ft | 506 kts | 101° |
| 2026-05-05 11:47 | 40.15030 | 33.00728 | 34971 ft | 501 kts | 92° |
| 2026-05-05 11:48 | 40.14976 | 33.14268 | 34971 ft | 496 kts | 84° |
| 2026-05-05 11:48 | 40.15265 | 33.23280 | 34965 ft | 496 kts | 83° |
| 2026-05-05 11:49 | 40.15552 | 33.32292 | 34965 ft | 496 kts | 84° |
| 2026-05-05 11:49 | 40.15809 | 33.41321 | 34958 ft | 497 kts | 84° |
| 2026-05-05 11:50 | 40.16046 | 33.50294 | 34944 ft | 497 kts | 84° |
| 2026-05-05 11:50 | 40.16275 | 33.59334 | 34948 ft | 498 kts | 85° |
| 2026-05-05 11:51 | 40.16499 | 33.68382 | 34948 ft | 498 kts | 85° |
| 2026-05-05 11:51 | 40.16717 | 33.77440 | 34952 ft | 499 kts | 85° |
| 2026-05-05 11:52 | 40.16356 | 33.86511 | 34956 ft | 503 kts | 95° |
| 2026-05-05 11:52 | 40.15212 | 33.95548 | 34951 ft | 504 kts | 97° |
| 2026-05-05 11:53 | 40.14100 | 34.04591 | 34956 ft | 503 kts | 95° |
| 2026-05-05 11:53 | 40.13159 | 34.13588 | 34959 ft | 503 kts | 95° |
| 2026-05-05 11:54 | 40.12208 | 34.22642 | 34962 ft | 503 kts | 95° |
| 2026-05-05 11:54 | 40.11223 | 34.31703 | 34959 ft | 503 kts | 96° |
| 2026-05-05 11:55 | 40.10221 | 34.40746 | 34959 ft | 503 kts | 96° |
| 2026-05-05 11:55 | 40.09209 | 34.49793 | 34960 ft | 503 kts | 96° |
| 2026-05-05 11:56 | 40.08191 | 34.58829 | 34957 ft | 503 kts | 96° |
| 2026-05-05 11:56 | 40.07167 | 34.67861 | 34957 ft | 503 kts | 96° |
| 2026-05-05 11:57 | 40.06137 | 34.76882 | 34956 ft | 503 kts | 97° |
| 2026-05-05 11:57 | 40.05101 | 34.85901 | 34953 ft | 502 kts | 97° |
| 2026-05-05 11:58 | 40.04059 | 34.94910 | 34950 ft | 502 kts | 97° |
| 2026-05-05 11:58 | 40.03009 | 35.03914 | 34946 ft | 502 kts | 97° |
| 2026-05-05 11:59 | 40.01953 | 35.12914 | 34947 ft | 502 kts | 97° |
| 2026-05-05 11:59 | 40.00889 | 35.21916 | 34946 ft | 502 kts | 98° |
| 2026-05-05 12:00 | 39.99820 | 35.30906 | 34944 ft | 502 kts | 98° |
| 2026-05-05 12:00 | 39.98740 | 35.39907 | 34941 ft | 502 kts | 98° |
| 2026-05-05 12:01 | 39.97609 | 35.48896 | 34941 ft | 503 kts | 98° |
| 2026-05-05 12:01 | 39.96457 | 35.57892 | 34941 ft | 503 kts | 99° |
| 2026-05-05 12:02 | 39.95306 | 35.66880 | 34946 ft | 503 kts | 99° |
| 2026-05-05 12:02 | 39.94151 | 35.75884 | 34947 ft | 504 kts | 99° |
| 2026-05-05 12:03 | 39.93002 | 35.84833 | 34948 ft | 504 kts | 99° |
| 2026-05-05 12:03 | 39.91833 | 35.93838 | 34951 ft | 504 kts | 99° |
| 2026-05-05 12:04 | 39.90647 | 36.02902 | 34956 ft | 504 kts | 99° |
| 2026-05-05 12:04 | 39.89466 | 36.11845 | 34958 ft | 505 kts | 100° |
| 2026-05-05 12:05 | 39.88271 | 36.20858 | 34960 ft | 506 kts | 100° |
| 2026-05-05 12:05 | 39.87065 | 36.29887 | 34961 ft | 506 kts | 101° |
| 2026-05-05 12:06 | 39.85758 | 36.38894 | 34961 ft | 507 kts | 101° |
| 2026-05-05 12:06 | 39.84516 | 36.47935 | 34956 ft | 507 kts | 101° |
| 2026-05-05 12:07 | 39.83324 | 36.56971 | 34951 ft | 507 kts | 101° |
| 2026-05-05 12:07 | 39.82120 | 36.66013 | 34942 ft | 507 kts | 101° |
| 2026-05-05 12:08 | 39.80900 | 36.75043 | 34941 ft | 506 kts | 101° |
| 2026-05-05 12:08 | 39.79672 | 36.84060 | 34938 ft | 506 kts | 101° |
| 2026-05-05 12:09 | 39.79321 | 36.93182 | 34943 ft | 507 kts | 87° |
| 2026-05-05 12:09 | 39.79951 | 37.02318 | 34938 ft | 508 kts | 85° |
| 2026-05-05 12:10 | 39.80726 | 37.11451 | 34941 ft | 508 kts | 85° |
| 2026-05-05 12:10 | 39.81497 | 37.20596 | 34939 ft | 509 kts | 85° |
| 2026-05-05 12:11 | 39.82240 | 37.29751 | 34935 ft | 509 kts | 85° |
| 2026-05-05 12:11 | 39.82965 | 37.38915 | 34932 ft | 509 kts | 85° |
| 2026-05-05 12:12 | 39.83684 | 37.48082 | 34927 ft | 510 kts | 85° |
| 2026-05-05 12:12 | 39.84385 | 37.57264 | 34930 ft | 510 kts | 86° |
| 2026-05-05 12:13 | 39.85076 | 37.66451 | 34928 ft | 510 kts | 86° |
| 2026-05-05 12:13 | 39.85762 | 37.75645 | 34922 ft | 510 kts | 86° |
| 2026-05-05 12:14 | 39.86443 | 37.84836 | 34919 ft | 511 kts | 86° |
| 2026-05-05 12:14 | 39.87114 | 37.93980 | 34916 ft | 511 kts | 86° |
| 2026-05-05 12:15 | 39.87789 | 38.03193 | 34911 ft | 511 kts | 86° |
| 2026-05-05 12:15 | 39.88463 | 38.12470 | 34912 ft | 511 kts | 86° |
| 2026-05-05 12:16 | 39.89122 | 38.21630 | 34905 ft | 512 kts | 86° |
| 2026-05-05 12:16 | 39.89779 | 38.30867 | 34902 ft | 512 kts | 87° |
| 2026-05-05 12:17 | 39.90434 | 38.40170 | 34898 ft | 512 kts | 87° |
| 2026-05-05 12:17 | 39.91072 | 38.49351 | 34902 ft | 513 kts | 87° |
| 2026-05-05 12:18 | 39.91706 | 38.58605 | 34899 ft | 513 kts | 87° |
| 2026-05-05 12:18 | 39.92335 | 38.67867 | 34900 ft | 513 kts | 87° |
| 2026-05-05 12:19 | 39.92957 | 38.77138 | 34904 ft | 514 kts | 87° |
| 2026-05-05 12:19 | 39.93573 | 38.86414 | 34897 ft | 514 kts | 87° |
| 2026-05-05 12:20 | 39.94036 | 38.95697 | 34907 ft | 513 kts | 91° |
| 2026-05-05 12:20 | 39.94106 | 39.04981 | 34905 ft | 512 kts | 92° |
| 2026-05-05 12:21 | 39.94152 | 39.14272 | 34893 ft | 513 kts | 92° |
| 2026-05-05 12:21 | 39.94265 | 39.23567 | 34897 ft | 513 kts | 91° |
| 2026-05-05 12:22 | 39.94408 | 39.32874 | 34895 ft | 513 kts | 91° |
| 2026-05-05 12:22 | 39.94549 | 39.42173 | 34899 ft | 513 kts | 91° |
| 2026-05-05 12:23 | 39.94677 | 39.51474 | 34904 ft | 513 kts | 91° |
| 2026-05-05 12:23 | 39.94795 | 39.60770 | 34894 ft | 513 kts | 91° |
| 2026-05-05 12:24 | 39.94911 | 39.70076 | 34893 ft | 514 kts | 92° |
| 2026-05-05 12:24 | 39.95016 | 39.79319 | 34896 ft | 514 kts | 92° |
| 2026-05-05 12:25 | 39.95116 | 39.88621 | 34891 ft | 513 kts | 92° |
| 2026-05-05 12:25 | 39.95207 | 39.97933 | 34902 ft | 514 kts | 92° |
| 2026-05-05 12:26 | 39.95286 | 40.07233 | 34898 ft | 513 kts | 92° |
| 2026-05-05 12:26 | 39.95360 | 40.16540 | 34906 ft | 513 kts | 92° |
| 2026-05-05 12:27 | 39.95413 | 40.24333 | 34908 ft | 513 kts | 92° |
| 2026-05-05 12:27 | 39.95469 | 40.33572 | 34908 ft | 513 kts | 92° |
| 2026-05-05 12:28 | 39.95520 | 40.42865 | 34913 ft | 513 kts | 92° |
| 2026-05-05 12:28 | 39.95563 | 40.52141 | 34914 ft | 512 kts | 92° |
| 2026-05-05 12:29 | 39.95602 | 40.61434 | 34921 ft | 512 kts | 92° |
| 2026-05-05 12:29 | 39.95635 | 40.70720 | 34919 ft | 512 kts | 93° |
| 2026-05-05 12:30 | 39.95657 | 40.79994 | 34932 ft | 512 kts | 93° |
| 2026-05-05 12:30 | 39.95672 | 40.89284 | 34935 ft | 512 kts | 93° |
| 2026-05-05 12:31 | 39.95680 | 40.98567 | 34938 ft | 512 kts | 93° |
| 2026-05-05 12:31 | 39.95682 | 41.07834 | 34938 ft | 512 kts | 93° |
| 2026-05-05 12:32 | 39.95677 | 41.17107 | 34935 ft | 511 kts | 93° |
| 2026-05-05 12:32 | 39.96093 | 41.26382 | 34936 ft | 513 kts | 88° |
| 2026-05-05 12:33 | 39.96763 | 41.35653 | 34935 ft | 514 kts | 87° |
| 2026-05-05 12:33 | 39.97461 | 41.44916 | 34929 ft | 513 kts | 87° |
| 2026-05-05 12:34 | 39.98147 | 41.54183 | 34924 ft | 513 kts | 87° |
| 2026-05-05 12:34 | 39.98818 | 41.63447 | 34924 ft | 513 kts | 88° |
| 2026-05-05 12:35 | 39.99478 | 41.72719 | 34926 ft | 513 kts | 88° |
| 2026-05-05 12:35 | 40.00147 | 41.81997 | 34930 ft | 514 kts | 87° |
| 2026-05-05 12:36 | 40.00820 | 41.91269 | 34932 ft | 514 kts | 88° |
| 2026-05-05 12:36 | 40.01487 | 42.00552 | 34937 ft | 514 kts | 88° |
| 2026-05-05 12:37 | 40.02140 | 42.09783 | 34940 ft | 514 kts | 88° |
| 2026-05-05 12:37 | 40.02790 | 42.19075 | 34944 ft | 514 kts | 88° |
| 2026-05-05 12:38 | 40.03432 | 42.28365 | 34950 ft | 514 kts | 88° |
| 2026-05-05 12:38 | 40.04068 | 42.37666 | 34956 ft | 515 kts | 88° |
| 2026-05-05 12:39 | 40.04695 | 42.46976 | 34962 ft | 516 kts | 88° |
| 2026-05-05 12:39 | 40.05277 | 42.56310 | 34965 ft | 516 kts | 89° |
| 2026-05-05 12:40 | 40.05840 | 42.65650 | 34968 ft | 517 kts | 89° |
| 2026-05-05 12:40 | 40.06402 | 42.75007 | 34973 ft | 517 kts | 89° |
| 2026-05-05 12:41 | 40.06961 | 42.84380 | 34972 ft | 518 kts | 89° |
| 2026-05-05 12:41 | 40.07513 | 42.93759 | 34977 ft | 519 kts | 89° |
| 2026-05-05 12:42 | 40.08066 | 43.03156 | 34978 ft | 519 kts | 89° |
| 2026-05-05 12:42 | 40.08610 | 43.12575 | 34976 ft | 520 kts | 89° |
| 2026-05-05 12:43 | 40.09140 | 43.21946 | 34971 ft | 522 kts | 89° |
| 2026-05-05 12:43 | 40.09671 | 43.31393 | 34958 ft | 522 kts | 90° |
| 2026-05-05 12:44 | 40.10198 | 43.40842 | 34943 ft | 522 kts | 90° |
| 2026-05-05 12:44 | 40.10711 | 43.50320 | 34927 ft | 523 kts | 90° |
| 2026-05-05 12:45 | 40.11214 | 43.59801 | 34908 ft | 524 kts | 90° |
| 2026-05-05 12:45 | 40.11703 | 43.69313 | 34892 ft | 524 kts | 92° |
| 2026-05-05 12:46 | 40.11906 | 43.78814 | 34883 ft | 523 kts | 94° |
| 2026-05-05 12:46 | 40.11982 | 43.88311 | 34880 ft | 524 kts | 94° |
| 2026-05-05 12:47 | 40.12087 | 43.97837 | 34889 ft | 525 kts | 94° |
| 2026-05-05 12:47 | 40.12223 | 44.07440 | 34878 ft | 525 kts | 94° |
| 2026-05-05 12:48 | 40.12360 | 44.16929 | 34876 ft | 526 kts | 95° |
| 2026-05-05 12:48 | 40.12489 | 44.26485 | 34882 ft | 526 kts | 95° |
| 2026-05-05 12:49 | 40.12609 | 44.36054 | 34882 ft | 527 kts | 95° |
| 2026-05-05 12:49 | 40.12720 | 44.45643 | 34881 ft | 528 kts | 95° |
| 2026-05-05 12:50 | 40.12823 | 44.55225 | 34878 ft | 528 kts | 95° |
| 2026-05-05 12:50 | 40.12918 | 44.64826 | 34878 ft | 528 kts | 95° |
| 2026-05-05 12:51 | 40.13006 | 44.74430 | 34880 ft | 529 kts | 96° |
| 2026-05-05 12:51 | 40.13088 | 44.84099 | 34894 ft | 529 kts | 96° |
| 2026-05-05 12:52 | 40.13161 | 44.93707 | 34898 ft | 529 kts | 96° |
| 2026-05-05 12:52 | 40.13227 | 45.03324 | 34904 ft | 529 kts | 96° |
| 2026-05-05 12:53 | 40.13285 | 45.12932 | 34908 ft | 529 kts | 96° |
| 2026-05-05 12:53 | 40.13328 | 45.22552 | 34900 ft | 529 kts | 96° |
| 2026-05-05 12:54 | 40.13387 | 45.36976 | 34901 ft | 530 kts | 96° |
| 2026-05-05 12:55 | 40.13410 | 45.46557 | 34906 ft | 531 kts | 96° |
| 2026-05-05 12:55 | 40.13428 | 45.56210 | 34901 ft | 531 kts | 96° |
| 2026-05-05 12:56 | 40.13443 | 45.65872 | 34908 ft | 532 kts | 97° |
| 2026-05-05 12:56 | 40.13443 | 45.75539 | 34909 ft | 532 kts | 97° |
| 2026-05-05 12:57 | 40.13438 | 45.85223 | 34899 ft | 533 kts | 97° |
| 2026-05-05 12:57 | 40.13427 | 45.94930 | 34911 ft | 535 kts | 97° |
| 2026-05-05 12:58 | 40.13563 | 46.04739 | 34909 ft | 538 kts | 94° |
| 2026-05-05 12:58 | 40.13918 | 46.14454 | 34908 ft | 539 kts | 94° |
| 2026-05-05 12:59 | 40.14258 | 46.24248 | 34909 ft | 539 kts | 94° |
| 2026-05-05 12:59 | 40.14549 | 46.34021 | 34899 ft | 537 kts | 94° |
| 2026-05-05 13:00 | 40.14935 | 46.48638 | 34912 ft | 536 kts | 94° |
| 2026-05-05 13:01 | 40.15422 | 46.68059 | 34912 ft | 534 kts | 94° |
| 2026-05-05 13:01 | 40.15657 | 46.77762 | 34908 ft | 534 kts | 94° |
| 2026-05-05 13:02 | 40.15880 | 46.87469 | 34900 ft | 534 kts | 94° |
| 2026-05-05 13:02 | 40.16097 | 46.97185 | 34898 ft | 535 kts | 94° |
| 2026-05-05 13:03 | 40.16307 | 47.06905 | 34894 ft | 535 kts | 94° |
| 2026-05-05 13:03 | 40.16508 | 47.16630 | 34893 ft | 535 kts | 94° |
| 2026-05-05 13:04 | 40.16701 | 47.26350 | 34890 ft | 535 kts | 94° |
| 2026-05-05 13:04 | 40.16886 | 47.36062 | 34885 ft | 535 kts | 94° |
| 2026-05-05 13:05 | 40.17065 | 47.45779 | 34888 ft | 534 kts | 94° |
| 2026-05-05 13:05 | 40.17237 | 47.55485 | 34882 ft | 534 kts | 94° |
| 2026-05-05 13:06 | 40.17396 | 47.65178 | 34882 ft | 533 kts | 94° |
| 2026-05-05 13:06 | 40.17548 | 47.74874 | 34883 ft | 533 kts | 94° |
| 2026-05-05 13:07 | 40.17691 | 47.84447 | 34881 ft | 533 kts | 94° |
| 2026-05-05 13:07 | 40.17828 | 47.94075 | 34877 ft | 533 kts | 94° |
| 2026-05-05 13:08 | 40.17957 | 48.03754 | 34877 ft | 533 kts | 94° |
| 2026-05-05 13:08 | 40.18078 | 48.13437 | 34878 ft | 532 kts | 94° |
| 2026-05-05 13:09 | 40.18192 | 48.23122 | 34890 ft | 532 kts | 95° |
| 2026-05-05 13:09 | 40.18297 | 48.32789 | 34887 ft | 532 kts | 95° |
| 2026-05-05 13:10 | 40.18378 | 48.40824 | 34883 ft | 532 kts | 95° |
| 2026-05-05 13:10 | 40.18482 | 48.52063 | 34886 ft | 532 kts | 95° |
| 2026-05-05 13:11 | 40.18550 | 48.60159 | 34886 ft | 531 kts | 95° |
| 2026-05-05 13:11 | 40.18635 | 48.71389 | 34891 ft | 531 kts | 95° |
| 2026-05-05 13:12 | 40.18690 | 48.79488 | 34897 ft | 531 kts | 95° |
| 2026-05-05 13:12 | 40.18749 | 48.89154 | 34898 ft | 531 kts | 95° |
| 2026-05-05 13:13 | 40.18786 | 48.98748 | 34901 ft | 532 kts | 95° |
| 2026-05-05 13:13 | 40.18810 | 49.08420 | 34907 ft | 531 kts | 95° |
| 2026-05-05 13:14 | 40.18829 | 49.18075 | 34909 ft | 531 kts | 95° |
| 2026-05-05 13:14 | 40.18841 | 49.27748 | 34916 ft | 531 kts | 95° |
| 2026-05-05 13:15 | 40.18873 | 49.37410 | 34913 ft | 531 kts | 95° |
| 2026-05-05 13:15 | 40.18874 | 49.47068 | 34914 ft | 529 kts | 98° |
| 2026-05-05 13:16 | 40.17551 | 49.56340 | 34921 ft | 513 kts | 114° |
| 2026-05-05 13:16 | 40.15341 | 49.65183 | 34916 ft | 511 kts | 116° |
| 2026-05-05 13:17 | 40.12994 | 49.73951 | 34912 ft | 511 kts | 116° |
| 2026-05-05 13:17 | 40.10645 | 49.82722 | 34914 ft | 512 kts | 116° |
| 2026-05-05 13:18 | 40.08311 | 49.91505 | 34913 ft | 512 kts | 116° |
| 2026-05-05 13:18 | 40.05980 | 50.00290 | 34914 ft | 512 kts | 116° |
| 2026-05-05 13:19 | 40.03641 | 50.09078 | 34907 ft | 513 kts | 117° |
| 2026-05-05 13:19 | 40.01293 | 50.17863 | 34918 ft | 513 kts | 117° |
| 2026-05-05 13:20 | 39.98936 | 50.26652 | 34915 ft | 513 kts | 117° |
| 2026-05-05 13:20 | 39.96570 | 50.35440 | 34912 ft | 514 kts | 117° |
| 2026-05-05 13:21 | 39.94195 | 50.44228 | 34910 ft | 514 kts | 117° |
| 2026-05-05 13:21 | 39.91814 | 50.53013 | 34913 ft | 514 kts | 118° |
| 2026-05-05 13:22 | 39.89424 | 50.61799 | 34912 ft | 515 kts | 118° |
| 2026-05-05 13:22 | 39.87028 | 50.70575 | 34909 ft | 515 kts | 118° |
| 2026-05-05 13:23 | 39.84621 | 50.79360 | 34907 ft | 515 kts | 118° |
| 2026-05-05 13:23 | 39.82208 | 50.88136 | 34909 ft | 516 kts | 118° |
| 2026-05-05 13:24 | 39.79787 | 50.96915 | 34917 ft | 516 kts | 118° |
| 2026-05-05 13:24 | 39.77354 | 51.05702 | 34910 ft | 517 kts | 118° |
| 2026-05-05 13:25 | 39.74914 | 51.14488 | 34909 ft | 517 kts | 118° |
| 2026-05-05 13:25 | 39.72464 | 51.23278 | 34907 ft | 518 kts | 118° |
| 2026-05-05 13:26 | 39.70005 | 51.32070 | 34903 ft | 518 kts | 118° |
| 2026-05-05 13:26 | 39.67555 | 51.40804 | 34907 ft | 519 kts | 118° |
| 2026-05-05 13:27 | 39.65175 | 51.49732 | 34911 ft | 526 kts | 112° |
| 2026-05-05 13:27 | 39.63663 | 51.59087 | 34905 ft | 532 kts | 108° |
| 2026-05-05 13:28 | 39.62344 | 51.68546 | 34907 ft | 533 kts | 107° |
| 2026-05-05 13:28 | 39.61041 | 51.78021 | 34909 ft | 534 kts | 107° |
| 2026-05-05 13:29 | 39.59710 | 51.87497 | 34909 ft | 534 kts | 108° |
| 2026-05-05 13:29 | 39.58360 | 51.96962 | 34910 ft | 534 kts | 108° |
| 2026-05-05 13:30 | 39.56998 | 52.06438 | 34909 ft | 535 kts | 108° |
| 2026-05-05 13:30 | 39.55627 | 52.15913 | 34913 ft | 535 kts | 108° |
| 2026-05-05 13:31 | 39.54257 | 52.25334 | 34911 ft | 536 kts | 108° |
| 2026-05-05 13:31 | 39.52869 | 52.34821 | 34913 ft | 536 kts | 108° |
| 2026-05-05 13:32 | 39.51463 | 52.44372 | 34909 ft | 537 kts | 108° |
| 2026-05-05 13:32 | 39.50064 | 52.53821 | 34904 ft | 538 kts | 108° |
| 2026-05-05 13:33 | 39.48648 | 52.63333 | 34901 ft | 538 kts | 108° |
| 2026-05-05 13:33 | 39.47223 | 52.72844 | 34896 ft | 539 kts | 108° |
| 2026-05-05 13:34 | 39.45788 | 52.82371 | 34890 ft | 539 kts | 107° |
| 2026-05-05 13:34 | 39.44346 | 52.91889 | 34887 ft | 539 kts | 107° |
| 2026-05-05 13:35 | 39.42896 | 53.01403 | 34878 ft | 539 kts | 107° |
| 2026-05-05 13:35 | 39.41441 | 53.10902 | 34876 ft | 539 kts | 107° |
| 2026-05-05 13:36 | 39.39978 | 53.20395 | 34860 ft | 538 kts | 107° |
| 2026-05-05 13:36 | 39.38505 | 53.29892 | 34852 ft | 538 kts | 107° |
| 2026-05-05 13:37 | 39.37026 | 53.39375 | 34861 ft | 538 kts | 107° |
| 2026-05-05 13:37 | 39.35540 | 53.48850 | 34847 ft | 538 kts | 107° |
| 2026-05-05 13:38 | 39.34045 | 53.58332 | 34849 ft | 539 kts | 107° |
| 2026-05-05 13:38 | 39.32542 | 53.67813 | 34833 ft | 539 kts | 107° |
| 2026-05-05 13:39 | 39.31029 | 53.77302 | 34833 ft | 540 kts | 107° |
| 2026-05-05 13:39 | 39.29508 | 53.86789 | 34821 ft | 540 kts | 107° |
| 2026-05-05 13:40 | 39.27979 | 53.96275 | 34819 ft | 540 kts | 107° |
| 2026-05-05 13:40 | 39.26441 | 54.05764 | 34814 ft | 540 kts | 107° |
| 2026-05-05 13:41 | 39.24895 | 54.15254 | 34805 ft | 540 kts | 107° |
| 2026-05-05 13:41 | 39.23341 | 54.24739 | 34804 ft | 541 kts | 107° |
| 2026-05-05 13:42 | 39.21778 | 54.34228 | 34802 ft | 541 kts | 107° |
| 2026-05-05 13:42 | 39.20209 | 54.43702 | 34797 ft | 540 kts | 107° |
| 2026-05-05 13:43 | 39.18632 | 54.53173 | 34794 ft | 540 kts | 107° |
| 2026-05-05 13:43 | 39.17050 | 54.62634 | 34791 ft | 540 kts | 107° |
| 2026-05-05 13:44 | 39.15456 | 54.72090 | 34787 ft | 540 kts | 107° |
| 2026-05-05 13:44 | 39.13856 | 54.81525 | 34790 ft | 539 kts | 107° |
| 2026-05-05 13:45 | 39.12250 | 54.90960 | 34788 ft | 539 kts | 107° |
| 2026-05-05 13:45 | 39.10637 | 55.00383 | 34785 ft | 539 kts | 107° |
| 2026-05-05 13:46 | 39.09017 | 55.09798 | 34787 ft | 539 kts | 107° |
| 2026-05-05 13:46 | 39.07390 | 55.19212 | 34789 ft | 539 kts | 107° |
| 2026-05-05 13:47 | 39.05754 | 55.28623 | 34783 ft | 538 kts | 107° |
| 2026-05-05 13:47 | 39.04114 | 55.38016 | 34785 ft | 538 kts | 107° |
| 2026-05-05 13:48 | 39.02465 | 55.47401 | 34791 ft | 538 kts | 107° |
| 2026-05-05 13:48 | 39.00821 | 55.56726 | 34789 ft | 538 kts | 107° |
| 2026-05-05 13:49 | 38.99159 | 55.66109 | 34783 ft | 538 kts | 107° |
| 2026-05-05 13:49 | 38.97496 | 55.75480 | 34785 ft | 538 kts | 107° |
| 2026-05-05 13:50 | 38.95826 | 55.84841 | 34786 ft | 537 kts | 107° |
| 2026-05-05 13:50 | 38.94147 | 55.94197 | 34781 ft | 537 kts | 107° |
| 2026-05-05 13:51 | 38.92461 | 56.03541 | 34779 ft | 537 kts | 107° |
| 2026-05-05 13:51 | 38.90768 | 56.12883 | 34779 ft | 537 kts | 107° |
| 2026-05-05 13:52 | 38.89069 | 56.22210 | 34782 ft | 536 kts | 107° |
| 2026-05-05 13:52 | 38.87364 | 56.31530 | 34780 ft | 537 kts | 107° |
| 2026-05-05 13:53 | 38.85651 | 56.40845 | 34782 ft | 536 kts | 107° |
| 2026-05-05 13:53 | 38.83934 | 56.50132 | 34775 ft | 535 kts | 106° |
| 2026-05-05 13:54 | 38.82211 | 56.59418 | 34783 ft | 535 kts | 107° |
| 2026-05-05 13:54 | 38.80482 | 56.68683 | 34787 ft | 534 kts | 107° |
| 2026-05-05 13:55 | 38.78745 | 56.77946 | 34786 ft | 535 kts | 107° |
| 2026-05-05 13:55 | 38.77297 | 56.85641 | 34784 ft | 535 kts | 107° |
| 2026-05-05 13:56 | 38.75546 | 56.94900 | 34781 ft | 534 kts | 107° |
| 2026-05-05 13:56 | 38.73790 | 57.04147 | 34782 ft | 534 kts | 107° |
| 2026-05-05 13:57 | 38.72028 | 57.13384 | 34782 ft | 534 kts | 107° |
| 2026-05-05 13:57 | 38.70260 | 57.22605 | 34777 ft | 533 kts | 107° |
| 2026-05-05 13:58 | 38.68487 | 57.31812 | 34777 ft | 532 kts | 107° |
| 2026-05-05 13:58 | 38.66709 | 57.41006 | 34775 ft | 532 kts | 107° |
| 2026-05-05 13:59 | 38.64027 | 57.54791 | 34770 ft | 532 kts | 107° |
| 2026-05-05 14:00 | 38.60980 | 57.68408 | 34773 ft | 528 kts | 115° |
| 2026-05-05 14:00 | 38.58098 | 57.77037 | 34772 ft | 528 kts | 117° |
| 2026-05-05 14:01 | 38.55091 | 57.85584 | 34768 ft | 528 kts | 117° |
| 2026-05-05 14:01 | 38.52066 | 57.94124 | 34766 ft | 528 kts | 117° |
| 2026-05-05 14:02 | 38.49070 | 58.02607 | 34780 ft | 527 kts | 117° |
| 2026-05-05 14:02 | 38.46058 | 58.11142 | 34765 ft | 527 kts | 117° |
| 2026-05-05 14:03 | 38.43041 | 58.19671 | 34773 ft | 527 kts | 117° |
| 2026-05-05 14:03 | 38.40158 | 58.28265 | 34773 ft | 530 kts | 110° |
| 2026-05-05 14:04 | 38.38158 | 58.37303 | 34770 ft | 531 kts | 107° |
| 2026-05-05 14:04 | 38.36344 | 58.46421 | 34775 ft | 531 kts | 106° |
| 2026-05-05 14:05 | 38.34552 | 58.55534 | 34771 ft | 530 kts | 106° |
| 2026-05-05 14:05 | 38.32739 | 58.64630 | 34769 ft | 530 kts | 106° |
| 2026-05-05 14:06 | 38.30909 | 58.73711 | 34772 ft | 529 kts | 106° |
| 2026-05-05 14:06 | 38.29070 | 58.82777 | 34774 ft | 529 kts | 106° |
| 2026-05-05 14:07 | 38.27223 | 58.91849 | 34775 ft | 529 kts | 106° |
| 2026-05-05 14:07 | 38.25370 | 59.00909 | 34775 ft | 529 kts | 106° |
| 2026-05-05 14:08 | 38.23511 | 59.09968 | 34776 ft | 529 kts | 106° |
| 2026-05-05 14:08 | 38.21645 | 59.19017 | 34776 ft | 529 kts | 106° |
| 2026-05-05 14:09 | 38.19771 | 59.28071 | 34775 ft | 530 kts | 106° |
| 2026-05-05 14:09 | 38.17887 | 59.37131 | 34777 ft | 530 kts | 106° |
| 2026-05-05 14:10 | 38.15995 | 59.46192 | 34777 ft | 531 kts | 106° |
| 2026-05-05 14:10 | 38.14098 | 59.55244 | 34781 ft | 531 kts | 106° |
| 2026-05-05 14:11 | 38.12191 | 59.64302 | 34784 ft | 531 kts | 106° |
| 2026-05-05 14:11 | 38.10276 | 59.73358 | 34784 ft | 531 kts | 106° |
| 2026-05-05 14:12 | 38.08356 | 59.82404 | 34788 ft | 531 kts | 106° |
| 2026-05-05 14:12 | 38.06429 | 59.91444 | 34787 ft | 531 kts | 107° |
| 2026-05-05 14:13 | 38.04496 | 60.00472 | 34790 ft | 530 kts | 107° |
| 2026-05-05 14:13 | 38.02557 | 60.09497 | 34797 ft | 530 kts | 107° |
| 2026-05-05 14:14 | 37.99852 | 60.18132 | 34798 ft | 525 kts | 123° |
| 2026-05-05 14:14 | 37.95407 | 60.25389 | 34793 ft | 520 kts | 135° |
| 2026-05-05 14:15 | 37.90512 | 60.32146 | 34795 ft | 521 kts | 136° |
| 2026-05-05 14:15 | 37.85593 | 60.38790 | 34795 ft | 521 kts | 136° |
| 2026-05-05 14:16 | 37.80655 | 60.45504 | 34797 ft | 521 kts | 136° |
| 2026-05-05 14:16 | 37.75732 | 60.52234 | 34800 ft | 522 kts | 136° |
| 2026-05-05 14:17 | 37.70744 | 60.58881 | 34798 ft | 521 kts | 137° |
| 2026-05-05 14:17 | 37.65631 | 60.65354 | 34799 ft | 520 kts | 138° |
| 2026-05-05 14:18 | 37.60516 | 60.71814 | 34801 ft | 520 kts | 138° |
| 2026-05-05 14:18 | 37.55424 | 60.78283 | 34802 ft | 520 kts | 137° |
| 2026-05-05 14:19 | 37.50336 | 60.84762 | 34804 ft | 520 kts | 137° |
| 2026-05-05 14:19 | 37.45250 | 60.91228 | 34806 ft | 520 kts | 137° |
| 2026-05-05 14:20 | 37.40159 | 60.97684 | 34807 ft | 519 kts | 137° |
| 2026-05-05 14:20 | 37.35063 | 61.04133 | 34810 ft | 519 kts | 137° |
| 2026-05-05 14:21 | 37.29970 | 61.10564 | 34813 ft | 520 kts | 137° |
| 2026-05-05 14:21 | 37.24864 | 61.16998 | 34816 ft | 520 kts | 137° |
| 2026-05-05 14:22 | 37.19753 | 61.23428 | 34818 ft | 520 kts | 137° |
| 2026-05-05 14:22 | 37.14637 | 61.29850 | 34818 ft | 521 kts | 137° |
| 2026-05-05 14:23 | 37.09504 | 61.36262 | 34820 ft | 521 kts | 137° |
| 2026-05-05 14:23 | 37.04368 | 61.42667 | 34822 ft | 521 kts | 137° |
| 2026-05-05 14:24 | 36.99228 | 61.49070 | 34827 ft | 522 kts | 137° |
| 2026-05-05 14:24 | 36.94077 | 61.55475 | 34828 ft | 522 kts | 137° |
| 2026-05-05 14:25 | 36.88923 | 61.61869 | 34824 ft | 523 kts | 137° |
| 2026-05-05 14:25 | 36.83761 | 61.68269 | 34836 ft | 523 kts | 137° |
| 2026-05-05 14:26 | 36.78597 | 61.74655 | 34831 ft | 523 kts | 137° |
| 2026-05-05 14:26 | 36.73424 | 61.81040 | 34831 ft | 523 kts | 137° |
| 2026-05-05 14:27 | 36.68242 | 61.87423 | 34844 ft | 523 kts | 137° |
| 2026-05-05 14:27 | 36.63058 | 61.93798 | 34846 ft | 524 kts | 137° |
| 2026-05-05 14:28 | 36.57868 | 62.00165 | 34858 ft | 524 kts | 137° |
| 2026-05-05 14:28 | 36.52669 | 62.06532 | 34856 ft | 525 kts | 137° |
| 2026-05-05 14:29 | 36.47464 | 62.12893 | 34862 ft | 525 kts | 137° |
| 2026-05-05 14:29 | 36.42248 | 62.19256 | 34863 ft | 525 kts | 137° |
| 2026-05-05 14:30 | 36.37029 | 62.25609 | 34874 ft | 526 kts | 137° |
| 2026-05-05 14:30 | 36.31807 | 62.31954 | 34879 ft | 526 kts | 137° |
| 2026-05-05 14:31 | 36.26575 | 62.38297 | 34880 ft | 526 kts | 138° |
| 2026-05-05 14:31 | 36.21339 | 62.44632 | 34878 ft | 527 kts | 138° |
| 2026-05-05 14:32 | 36.16095 | 62.50966 | 34885 ft | 527 kts | 138° |
| 2026-05-05 14:32 | 36.10838 | 62.57302 | 34883 ft | 527 kts | 138° |
| 2026-05-05 14:33 | 36.05579 | 62.63629 | 34887 ft | 528 kts | 138° |
| 2026-05-05 14:33 | 36.00317 | 62.69946 | 34885 ft | 528 kts | 138° |
| 2026-05-05 14:34 | 35.95042 | 62.76266 | 34887 ft | 528 kts | 138° |
| 2026-05-05 14:34 | 35.89767 | 62.82576 | 34891 ft | 529 kts | 138° |
| 2026-05-05 14:35 | 35.84479 | 62.88886 | 34893 ft | 529 kts | 138° |
| 2026-05-05 14:35 | 35.79226 | 62.95144 | 34895 ft | 529 kts | 138° |
| 2026-05-05 14:36 | 35.73898 | 63.01479 | 34898 ft | 529 kts | 138° |
| 2026-05-05 14:36 | 35.68597 | 63.07768 | 34903 ft | 530 kts | 138° |
| 2026-05-05 14:37 | 35.63321 | 63.14016 | 34907 ft | 530 kts | 138° |
| 2026-05-05 14:37 | 35.58126 | 63.20449 | 34913 ft | 532 kts | 131° |
| 2026-05-05 14:38 | 35.53496 | 63.27560 | 34922 ft | 534 kts | 129° |
| 2026-05-05 14:38 | 35.48978 | 63.34789 | 34929 ft | 534 kts | 129° |
| 2026-05-05 14:39 | 35.44465 | 63.42030 | 34938 ft | 535 kts | 129° |
| 2026-05-05 14:39 | 35.39928 | 63.49263 | 34950 ft | 535 kts | 129° |
| 2026-05-05 14:40 | 35.35371 | 63.56493 | 34962 ft | 536 kts | 129° |
| 2026-05-05 14:40 | 35.31545 | 63.62550 | 34977 ft | 537 kts | 129° |
| 2026-05-05 14:41 | 35.26978 | 63.69786 | 34986 ft | 537 kts | 129° |
| 2026-05-05 14:41 | 35.22411 | 63.77029 | 34996 ft | 538 kts | 129° |
| 2026-05-05 14:42 | 35.17870 | 63.84225 | 35007 ft | 538 kts | 129° |
| 2026-05-05 14:42 | 35.13294 | 63.91463 | 35013 ft | 538 kts | 129° |
| 2026-05-05 14:43 | 35.08707 | 63.98696 | 35024 ft | 539 kts | 129° |
| 2026-05-05 14:43 | 35.04114 | 64.05922 | 35030 ft | 539 kts | 129° |
| 2026-05-05 14:44 | 34.99511 | 64.13153 | 35042 ft | 540 kts | 129° |
| 2026-05-05 14:44 | 34.94902 | 64.20377 | 35053 ft | 540 kts | 129° |
| 2026-05-05 14:45 | 34.90289 | 64.27594 | 35071 ft | 540 kts | 129° |
| 2026-05-05 14:45 | 34.85668 | 64.34806 | 35083 ft | 541 kts | 129° |
| 2026-05-05 14:46 | 34.81031 | 64.42025 | 35097 ft | 541 kts | 129° |
| 2026-05-05 14:46 | 34.76395 | 64.49233 | 35106 ft | 541 kts | 129° |
| 2026-05-05 14:47 | 34.71750 | 64.56443 | 35111 ft | 542 kts | 129° |
| 2026-05-05 14:47 | 34.67096 | 64.63648 | 35116 ft | 542 kts | 129° |
| 2026-05-05 14:48 | 34.62438 | 64.70844 | 35113 ft | 542 kts | 130° |
| 2026-05-05 14:48 | 34.57768 | 64.78044 | 35111 ft | 543 kts | 130° |
| 2026-05-05 14:49 | 34.53094 | 64.85237 | 35109 ft | 543 kts | 130° |
| 2026-05-05 14:49 | 34.48416 | 64.92426 | 35109 ft | 543 kts | 130° |
| 2026-05-05 14:50 | 34.43725 | 64.99602 | 35105 ft | 543 kts | 130° |
| 2026-05-05 14:50 | 34.39028 | 65.06759 | 35104 ft | 543 kts | 130° |
| 2026-05-05 14:51 | 34.34354 | 65.13871 | 35105 ft | 544 kts | 130° |
| 2026-05-05 14:51 | 34.29642 | 65.21029 | 35102 ft | 544 kts | 130° |
| 2026-05-05 14:52 | 34.24923 | 65.28188 | 35106 ft | 545 kts | 130° |
| 2026-05-05 14:52 | 34.20192 | 65.35348 | 35106 ft | 545 kts | 130° |
| 2026-05-05 14:53 | 34.15455 | 65.42506 | 35099 ft | 546 kts | 130° |
| 2026-05-05 14:53 | 34.10711 | 65.49657 | 35094 ft | 546 kts | 130° |
| 2026-05-05 14:54 | 34.05960 | 65.56809 | 35084 ft | 547 kts | 130° |
| 2026-05-05 14:54 | 34.01237 | 65.63923 | 35078 ft | 547 kts | 130° |
| 2026-05-05 14:55 | 33.96440 | 65.71130 | 35069 ft | 548 kts | 130° |
| 2026-05-05 14:55 | 33.91696 | 65.78243 | 35061 ft | 548 kts | 130° |
| 2026-05-05 14:56 | 33.86921 | 65.85392 | 35051 ft | 548 kts | 130° |
| 2026-05-05 14:56 | 33.82111 | 65.92579 | 35043 ft | 548 kts | 130° |
| 2026-05-05 14:57 | 33.77321 | 65.99720 | 35031 ft | 548 kts | 130° |
| 2026-05-05 14:57 | 33.72532 | 66.06845 | 35023 ft | 548 kts | 130° |
| 2026-05-05 14:58 | 33.67731 | 66.13974 | 35003 ft | 549 kts | 130° |
| 2026-05-05 14:58 | 33.62921 | 66.21104 | 34992 ft | 550 kts | 130° |
| 2026-05-05 14:59 | 33.58107 | 66.28223 | 34988 ft | 549 kts | 130° |
| 2026-05-05 14:59 | 33.53286 | 66.35341 | 34981 ft | 550 kts | 130° |
| 2026-05-05 15:00 | 33.49276 | 66.41264 | 34982 ft | 551 kts | 130° |
| 2026-05-05 15:00 | 33.43622 | 66.49594 | 34997 ft | 552 kts | 130° |
| 2026-05-05 15:01 | 33.38746 | 66.56698 | 34991 ft | 552 kts | 131° |
| 2026-05-05 15:01 | 33.33863 | 66.63797 | 35019 ft | 553 kts | 131° |
| 2026-05-05 15:02 | 33.28981 | 66.70896 | 35027 ft | 552 kts | 131° |
| 2026-05-05 15:02 | 33.24095 | 66.77990 | 35037 ft | 553 kts | 130° |
| 2026-05-05 15:03 | 33.19199 | 66.85091 | 35057 ft | 554 kts | 131° |
| 2026-05-05 15:03 | 33.14288 | 66.92198 | 35058 ft | 555 kts | 131° |
| 2026-05-05 15:04 | 33.09377 | 66.99291 | 35053 ft | 555 kts | 131° |
| 2026-05-05 15:04 | 33.04485 | 67.06341 | 35043 ft | 555 kts | 131° |
| 2026-05-05 15:05 | 32.97084 | 67.16976 | 35021 ft | 556 kts | 131° |
| 2026-05-05 15:06 | 32.92148 | 67.24056 | 35001 ft | 556 kts | 131° |
| 2026-05-05 15:06 | 32.87205 | 67.31133 | 34987 ft | 557 kts | 131° |
| 2026-05-05 15:07 | 32.82245 | 67.38225 | 34972 ft | 558 kts | 131° |
| 2026-05-05 15:07 | 32.77278 | 67.45310 | 34960 ft | 558 kts | 131° |
| 2026-05-05 15:08 | 32.72217 | 67.52302 | 34943 ft | 558 kts | 133° |
| 2026-05-05 15:08 | 32.67034 | 67.59174 | 34934 ft | 558 kts | 134° |
| 2026-05-05 15:09 | 32.61848 | 67.66035 | 34926 ft | 558 kts | 133° |
| 2026-05-05 15:09 | 32.56655 | 67.72958 | 34925 ft | 558 kts | 133° |
| 2026-05-05 15:10 | 32.51502 | 67.79842 | 34925 ft | 558 kts | 133° |
| 2026-05-05 15:10 | 32.46421 | 67.86799 | 34928 ft | 559 kts | 131° |
| 2026-05-05 15:11 | 32.41511 | 67.93940 | 34936 ft | 560 kts | 130° |
| 2026-05-05 15:11 | 32.36601 | 68.01091 | 34942 ft | 560 kts | 130° |
| 2026-05-05 15:12 | 32.31653 | 68.08210 | 34946 ft | 561 kts | 130° |
| 2026-05-05 15:12 | 32.26679 | 68.15315 | 34951 ft | 561 kts | 130° |
| 2026-05-05 15:13 | 32.21696 | 68.22416 | 34955 ft | 562 kts | 130° |
| 2026-05-05 15:13 | 32.16698 | 68.29523 | 34954 ft | 563 kts | 130° |
| 2026-05-05 15:14 | 32.11698 | 68.36626 | 34955 ft | 564 kts | 130° |
| 2026-05-05 15:14 | 32.06677 | 68.43745 | 34953 ft | 564 kts | 131° |
| 2026-05-05 15:15 | 32.01685 | 68.50808 | 34953 ft | 564 kts | 131° |
| 2026-05-05 15:15 | 31.96623 | 68.57957 | 34946 ft | 565 kts | 131° |
| 2026-05-05 15:16 | 31.91591 | 68.65050 | 34944 ft | 565 kts | 131° |
| 2026-05-05 15:16 | 31.86553 | 68.72141 | 34948 ft | 564 kts | 131° |
| 2026-05-05 15:17 | 31.81547 | 68.79172 | 34949 ft | 564 kts | 131° |
| 2026-05-05 15:17 | 31.76498 | 68.86248 | 34950 ft | 565 kts | 131° |
| 2026-05-05 15:18 | 31.71443 | 68.93319 | 34953 ft | 565 kts | 131° |
| 2026-05-05 15:18 | 31.66383 | 69.00385 | 34963 ft | 566 kts | 131° |
| 2026-05-05 15:19 | 31.61431 | 69.07584 | 34962 ft | 567 kts | 128° |
| 2026-05-05 15:19 | 31.56580 | 69.14894 | 34962 ft | 568 kts | 128° |
| 2026-05-05 15:20 | 31.51701 | 69.22202 | 34955 ft | 569 kts | 129° |
| 2026-05-05 15:20 | 31.46795 | 69.29476 | 34952 ft | 569 kts | 129° |
| 2026-05-05 15:21 | 31.41874 | 69.36737 | 34954 ft | 570 kts | 129° |
| 2026-05-05 15:21 | 31.36406 | 69.43400 | 34959 ft | 566 kts | 146° |
| 2026-05-05 15:21 | 31.33097 | 69.45828 | 34958 ft | 559 kts | 158° |
| 2026-05-05 15:22 | 31.29511 | 69.47465 | 34962 ft | 550 kts | 170° |
| 2026-05-05 15:22 | 31.22112 | 69.49542 | 34964 ft | 545 kts | 174° |
| 2026-05-05 15:23 | 31.14691 | 69.51300 | 34968 ft | 544 kts | 174° |
| 2026-05-05 15:23 | 31.07284 | 69.53064 | 34969 ft | 543 kts | 174° |
| 2026-05-05 15:24 | 30.99884 | 69.54879 | 34972 ft | 543 kts | 173° |
| 2026-05-05 15:24 | 30.93736 | 69.56404 | 34977 ft | 544 kts | 173° |
| 2026-05-05 15:25 | 30.86333 | 69.58241 | 34974 ft | 544 kts | 173° |
| 2026-05-05 15:25 | 30.78935 | 69.60073 | 34973 ft | 544 kts | 174° |
| 2026-05-05 15:26 | 30.71523 | 69.61903 | 34969 ft | 545 kts | 174° |
| 2026-05-05 15:26 | 30.64150 | 69.63724 | 34961 ft | 546 kts | 173° |
| 2026-05-05 15:27 | 30.56772 | 69.65528 | 34959 ft | 546 kts | 174° |
| 2026-05-05 15:27 | 30.49328 | 69.67354 | 34957 ft | 547 kts | 174° |
| 2026-05-05 15:28 | 30.41876 | 69.69192 | 34960 ft | 548 kts | 174° |
| 2026-05-05 15:28 | 30.34414 | 69.71026 | 34958 ft | 548 kts | 174° |
| 2026-05-05 15:29 | 30.26958 | 69.72852 | 34958 ft | 548 kts | 174° |
| 2026-05-05 15:29 | 30.19497 | 69.74789 | 34959 ft | 551 kts | 171° |
| 2026-05-05 15:30 | 30.12057 | 69.77009 | 34959 ft | 553 kts | 171° |
| 2026-05-05 15:30 | 30.04611 | 69.79249 | 34956 ft | 553 kts | 171° |
| 2026-05-05 15:31 | 29.97193 | 69.81432 | 34954 ft | 554 kts | 171° |
| 2026-05-05 15:31 | 29.89720 | 69.83603 | 34947 ft | 554 kts | 172° |
| 2026-05-05 15:32 | 29.82236 | 69.85768 | 34938 ft | 555 kts | 172° |
| 2026-05-05 15:32 | 29.74744 | 69.87935 | 34931 ft | 555 kts | 172° |
| 2026-05-05 15:33 | 29.67251 | 69.90101 | 34908 ft | 555 kts | 172° |
| 2026-05-05 15:33 | 29.59760 | 69.92263 | 34903 ft | 555 kts | 172° |
| 2026-05-05 15:34 | 29.52259 | 69.94437 | 34895 ft | 556 kts | 172° |
| 2026-05-05 15:34 | 29.44746 | 69.96580 | 34890 ft | 556 kts | 172° |
| 2026-05-05 15:35 | 29.37245 | 69.98734 | 34882 ft | 555 kts | 172° |
| 2026-05-05 15:35 | 29.29753 | 70.00885 | 34873 ft | 555 kts | 172° |
| 2026-05-05 15:36 | 29.22259 | 70.03031 | 34864 ft | 555 kts | 172° |
| 2026-05-05 15:36 | 29.14772 | 70.05170 | 34854 ft | 555 kts | 172° |
| 2026-05-05 15:37 | 29.07280 | 70.07307 | 34850 ft | 555 kts | 172° |
| 2026-05-05 15:37 | 28.99781 | 70.09445 | 34843 ft | 555 kts | 172° |
| 2026-05-05 15:38 | 28.92295 | 70.11575 | 34843 ft | 555 kts | 172° |
| 2026-05-05 15:38 | 28.84800 | 70.13705 | 34835 ft | 555 kts | 172° |
| 2026-05-05 15:39 | 28.77305 | 70.15832 | 34833 ft | 555 kts | 172° |
| 2026-05-05 15:39 | 28.69856 | 70.17942 | 34837 ft | 555 kts | 172° |
| 2026-05-05 15:40 | 28.62357 | 70.20064 | 34830 ft | 555 kts | 172° |
| 2026-05-05 15:40 | 28.54810 | 70.22196 | 34831 ft | 555 kts | 172° |
| 2026-05-05 15:41 | 28.47362 | 70.24297 | 34830 ft | 555 kts | 172° |
| 2026-05-05 15:41 | 28.40087 | 70.27613 | 34828 ft | 568 kts | 151° |
| 2026-05-05 15:41 | 28.36919 | 70.30309 | 34835 ft | 573 kts | 139° |
| 2026-05-05 15:42 | 28.34256 | 70.33679 | 34833 ft | 575 kts | 126° |
| 2026-05-05 15:42 | 28.30362 | 70.41587 | 34831 ft | 575 kts | 115° |
| 2026-05-05 15:43 | 28.26942 | 70.49792 | 34826 ft | 575 kts | 114° |
| 2026-05-05 15:43 | 28.23546 | 70.58004 | 34831 ft | 575 kts | 114° |
| 2026-05-05 15:44 | 28.20085 | 70.66179 | 34825 ft | 575 kts | 115° |
| 2026-05-05 15:44 | 28.16586 | 70.74334 | 34832 ft | 575 kts | 115° |
| 2026-05-05 15:45 | 28.13104 | 70.82419 | 34828 ft | 575 kts | 115° |
| 2026-05-05 15:45 | 28.09595 | 70.90557 | 34827 ft | 575 kts | 115° |
| 2026-05-05 15:46 | 28.06086 | 70.98687 | 34828 ft | 574 kts | 115° |
| 2026-05-05 15:46 | 28.02576 | 71.06804 | 34829 ft | 574 kts | 115° |
| 2026-05-05 15:47 | 27.99058 | 71.14921 | 34830 ft | 574 kts | 115° |
| 2026-05-05 15:47 | 27.95540 | 71.23024 | 34828 ft | 574 kts | 115° |
| 2026-05-05 15:48 | 27.92017 | 71.31121 | 34830 ft | 574 kts | 115° |
| 2026-05-05 15:48 | 27.88490 | 71.39213 | 34828 ft | 574 kts | 115° |
| 2026-05-05 15:49 | 27.84936 | 71.47281 | 34830 ft | 573 kts | 116° |
| 2026-05-05 15:49 | 27.81270 | 71.55215 | 34828 ft | 573 kts | 117° |
| 2026-05-05 15:50 | 27.77554 | 71.63176 | 34828 ft | 573 kts | 117° |
| 2026-05-05 15:50 | 27.73853 | 71.71148 | 34830 ft | 573 kts | 117° |
| 2026-05-05 15:51 | 27.70163 | 71.79118 | 34830 ft | 573 kts | 117° |
| 2026-05-05 15:51 | 27.66475 | 71.87080 | 34833 ft | 572 kts | 117° |
| 2026-05-05 15:52 | 27.62781 | 71.95035 | 34832 ft | 572 kts | 117° |
| 2026-05-05 15:52 | 27.59083 | 72.02982 | 34828 ft | 572 kts | 117° |
| 2026-05-05 15:53 | 27.55383 | 72.10917 | 34832 ft | 572 kts | 117° |
| 2026-05-05 15:53 | 27.51677 | 72.18850 | 34834 ft | 572 kts | 117° |
| 2026-05-05 15:54 | 27.47997 | 72.26714 | 34834 ft | 571 kts | 117° |
| 2026-05-05 15:54 | 27.44287 | 72.34626 | 34834 ft | 571 kts | 117° |
| 2026-05-05 15:55 | 27.40574 | 72.42530 | 34833 ft | 571 kts | 117° |
| 2026-05-05 15:55 | 27.36858 | 72.50425 | 34834 ft | 571 kts | 117° |
| 2026-05-05 15:56 | 27.33143 | 72.58304 | 34836 ft | 570 kts | 117° |
| 2026-05-05 15:56 | 27.29420 | 72.66184 | 34834 ft | 570 kts | 117° |
| 2026-05-05 15:57 | 27.25697 | 72.74051 | 34881 ft | 570 kts | 117° |
| 2026-05-05 15:57 | 27.23833 | 72.77984 | 35062 ft | 570 kts | 117° |
| 2026-05-05 15:57 | 27.21969 | 72.81914 | 35301 ft | 569 kts | 117° |
| 2026-05-05 15:57 | 27.20110 | 72.85831 | 35527 ft | 568 kts | 118° |
| 2026-05-05 15:58 | 27.18250 | 72.89745 | 35718 ft | 568 kts | 118° |
| 2026-05-05 15:58 | 27.16389 | 72.93658 | 35890 ft | 568 kts | 118° |
| 2026-05-05 15:58 | 27.14528 | 72.97564 | 36099 ft | 568 kts | 118° |
| 2026-05-05 15:58 | 27.12666 | 73.01473 | 36268 ft | 568 kts | 118° |
| 2026-05-05 15:59 | 27.10802 | 73.05379 | 36443 ft | 567 kts | 118° |
| 2026-05-05 15:59 | 27.08940 | 73.09280 | 36617 ft | 567 kts | 118° |
| 2026-05-05 15:59 | 27.07076 | 73.13181 | 36780 ft | 567 kts | 118° |
| 2026-05-05 16:00 | 27.03339 | 73.20988 | 36843 ft | 567 kts | 118° |
| 2026-05-05 16:00 | 26.99606 | 73.28777 | 36854 ft | 567 kts | 118° |
| 2026-05-05 16:01 | 26.95869 | 73.36557 | 36857 ft | 567 kts | 118° |
| 2026-05-05 16:01 | 26.92106 | 73.44323 | 36857 ft | 567 kts | 119° |
| 2026-05-05 16:02 | 26.88306 | 73.52060 | 36845 ft | 567 kts | 119° |
| 2026-05-05 16:02 | 26.84505 | 73.59790 | 36855 ft | 567 kts | 119° |
| 2026-05-05 16:03 | 26.80706 | 73.67519 | 36859 ft | 567 kts | 119° |
| 2026-05-05 16:03 | 26.76903 | 73.75252 | 36863 ft | 567 kts | 119° |
| 2026-05-05 16:04 | 26.73123 | 73.82925 | 36861 ft | 567 kts | 119° |
| 2026-05-05 16:04 | 26.69326 | 73.90648 | 36868 ft | 567 kts | 120° |
| 2026-05-05 16:05 | 26.65483 | 73.98409 | 36887 ft | 567 kts | 120° |
| 2026-05-05 16:05 | 26.61661 | 74.06112 | 36881 ft | 566 kts | 120° |
| 2026-05-05 16:06 | 26.57870 | 74.13746 | 36886 ft | 565 kts | 120° |
| 2026-05-05 16:06 | 26.54035 | 74.21476 | 36887 ft | 565 kts | 120° |
| 2026-05-05 16:07 | 26.50270 | 74.29171 | 36891 ft | 565 kts | 119° |
| 2026-05-05 16:07 | 26.46513 | 74.36871 | 36898 ft | 564 kts | 120° |
| 2026-05-05 16:08 | 26.42752 | 74.44553 | 36909 ft | 564 kts | 120° |
| 2026-05-05 16:08 | 26.38985 | 74.52219 | 36913 ft | 563 kts | 120° |
| 2026-05-05 16:09 | 26.35213 | 74.59880 | 36911 ft | 563 kts | 120° |
| 2026-05-05 16:09 | 26.31440 | 74.67530 | 36908 ft | 563 kts | 120° |
| 2026-05-05 16:10 | 26.27663 | 74.75176 | 36916 ft | 563 kts | 120° |
| 2026-05-05 16:10 | 26.23885 | 74.82810 | 36917 ft | 563 kts | 120° |
| 2026-05-05 16:11 | 26.20744 | 74.89148 | 36920 ft | 562 kts | 120° |
| 2026-05-05 16:12 | 26.12569 | 75.03925 | 36918 ft | 560 kts | 126° |
| 2026-05-05 16:13 | 26.01657 | 75.21816 | 36928 ft | 559 kts | 126° |
| 2026-05-05 16:13 | 25.97295 | 75.28965 | 36924 ft | 558 kts | 126° |
| 2026-05-05 16:14 | 25.88579 | 75.43227 | 36927 ft | 557 kts | 126° |
| 2026-05-05 16:15 | 25.79377 | 75.57024 | 36916 ft | 555 kts | 130° |
| 2026-05-05 16:16 | 25.70000 | 75.70620 | 36916 ft | 554 kts | 130° |
| 2026-05-05 16:17 | 25.63029 | 75.80839 | 36915 ft | 554 kts | 130° |
| 2026-05-05 16:18 | 25.56058 | 75.91037 | 36915 ft | 553 kts | 130° |
| 2026-05-05 16:19 | 25.49087 | 76.01208 | 36910 ft | 553 kts | 130° |
| 2026-05-05 16:19 | 25.42111 | 76.11362 | 36907 ft | 552 kts | 130° |
| 2026-05-05 16:20 | 25.32810 | 76.24867 | 36905 ft | 551 kts | 130° |
| 2026-05-05 16:22 | 25.21185 | 76.41693 | 36901 ft | 550 kts | 130° |
| 2026-05-05 16:23 | 25.11893 | 76.55099 | 36898 ft | 549 kts | 130° |
| 2026-05-05 16:23 | 25.04929 | 76.65122 | 36902 ft | 548 kts | 130° |
| 2026-05-05 16:24 | 25.00229 | 76.71746 | 36898 ft | 546 kts | 135° |
| 2026-05-05 16:25 | 24.92481 | 76.80911 | 36905 ft | 544 kts | 137° |
| 2026-05-05 16:25 | 24.84632 | 76.89940 | 36918 ft | 543 kts | 137° |
| 2026-05-05 16:26 | 24.74194 | 77.01957 | 36907 ft | 542 kts | 137° |
| 2026-05-05 16:27 | 24.68982 | 77.07954 | 36910 ft | 542 kts | 137° |
| 2026-05-05 16:27 | 24.63781 | 77.13930 | 36906 ft | 541 kts | 137° |
| 2026-05-05 16:28 | 24.58574 | 77.19905 | 36909 ft | 541 kts | 137° |
| 2026-05-05 16:28 | 24.53372 | 77.25866 | 36906 ft | 540 kts | 137° |
| 2026-05-05 16:29 | 24.48210 | 77.31773 | 36907 ft | 539 kts | 137° |
| 2026-05-05 16:29 | 24.43005 | 77.37721 | 36908 ft | 542 kts | 137° |
| 2026-05-05 16:30 | 24.37778 | 77.43689 | 36905 ft | 542 kts | 137° |
| 2026-05-05 16:30 | 24.32548 | 77.49653 | 36906 ft | 542 kts | 137° |
| 2026-05-05 16:31 | 24.27323 | 77.55603 | 36904 ft | 541 kts | 137° |
| 2026-05-05 16:31 | 24.22098 | 77.61545 | 36906 ft | 541 kts | 137° |
| 2026-05-05 16:32 | 24.16874 | 77.67479 | 36902 ft | 541 kts | 137° |
| 2026-05-05 16:32 | 24.11647 | 77.73408 | 36901 ft | 541 kts | 137° |
| 2026-05-05 16:33 | 24.06420 | 77.79330 | 36903 ft | 541 kts | 137° |
| 2026-05-05 16:33 | 24.01191 | 77.85247 | 36898 ft | 541 kts | 137° |
| 2026-05-05 16:34 | 23.95964 | 77.91154 | 36904 ft | 541 kts | 137° |
| 2026-05-05 16:34 | 23.90734 | 77.97058 | 36899 ft | 540 kts | 138° |
| 2026-05-05 16:35 | 23.85507 | 78.02950 | 36899 ft | 539 kts | 138° |
| 2026-05-05 16:35 | 23.80288 | 78.08827 | 36901 ft | 539 kts | 138° |
| 2026-05-05 16:36 | 23.75069 | 78.14696 | 36900 ft | 538 kts | 138° |
| 2026-05-05 16:36 | 23.69857 | 78.20550 | 36900 ft | 537 kts | 138° |
| 2026-05-05 16:37 | 23.64652 | 78.26389 | 36894 ft | 537 kts | 138° |
| 2026-05-05 16:37 | 23.59446 | 78.32222 | 36902 ft | 536 kts | 138° |
| 2026-05-05 16:38 | 23.54243 | 78.38044 | 36898 ft | 536 kts | 138° |
| 2026-05-05 16:38 | 23.49037 | 78.43863 | 36896 ft | 536 kts | 138° |
| 2026-05-05 16:39 | 23.43828 | 78.49678 | 36894 ft | 536 kts | 138° |
| 2026-05-05 16:39 | 23.38618 | 78.55487 | 36894 ft | 536 kts | 138° |
| 2026-05-05 16:40 | 23.33406 | 78.61291 | 36896 ft | 536 kts | 138° |
| 2026-05-05 16:40 | 23.28184 | 78.67101 | 36889 ft | 536 kts | 138° |
| 2026-05-05 16:41 | 23.22966 | 78.72899 | 36888 ft | 536 kts | 138° |
| 2026-05-05 16:41 | 23.17717 | 78.78646 | 36889 ft | 535 kts | 139° |
| 2026-05-05 16:42 | 23.12383 | 78.84289 | 36890 ft | 535 kts | 140° |
| 2026-05-05 16:42 | 23.07049 | 78.89922 | 36888 ft | 535 kts | 139° |
| 2026-05-05 16:43 | 23.01729 | 78.95565 | 36891 ft | 534 kts | 139° |
| 2026-05-05 16:43 | 22.96456 | 79.01169 | 36896 ft | 534 kts | 139° |
| 2026-05-05 16:44 | 22.91119 | 79.06836 | 36901 ft | 533 kts | 139° |
| 2026-05-05 16:44 | 22.85850 | 79.12424 | 36900 ft | 533 kts | 139° |
| 2026-05-05 16:45 | 22.80550 | 79.18036 | 36903 ft | 532 kts | 139° |
| 2026-05-05 16:45 | 22.75250 | 79.23642 | 36907 ft | 532 kts | 139° |
| 2026-05-05 16:46 | 22.69957 | 79.29234 | 36903 ft | 532 kts | 139° |
| 2026-05-05 16:46 | 22.64658 | 79.34826 | 36904 ft | 532 kts | 139° |
| 2026-05-05 16:47 | 22.59359 | 79.40411 | 36908 ft | 531 kts | 139° |
| 2026-05-05 16:47 | 22.54080 | 79.46009 | 36926 ft | 532 kts | 139° |
| 2026-05-05 16:48 | 22.48898 | 79.51732 | 36908 ft | 533 kts | 137° |
| 2026-05-05 16:48 | 22.43699 | 79.57516 | 36907 ft | 533 kts | 138° |
| 2026-05-05 16:49 | 22.38553 | 79.63201 | 36915 ft | 532 kts | 138° |
| 2026-05-05 16:49 | 22.33362 | 79.68905 | 36915 ft | 532 kts | 138° |
| 2026-05-05 16:50 | 22.28174 | 79.74597 | 36900 ft | 532 kts | 138° |
| 2026-05-05 16:50 | 22.22986 | 79.80282 | 36900 ft | 531 kts | 138° |
| 2026-05-05 16:51 | 22.17803 | 79.85958 | 36904 ft | 531 kts | 138° |
| 2026-05-05 16:51 | 22.12616 | 79.91631 | 36903 ft | 530 kts | 138° |
| 2026-05-05 16:52 | 22.07438 | 79.97286 | 36903 ft | 530 kts | 138° |
| 2026-05-05 16:52 | 22.02264 | 80.02934 | 36901 ft | 529 kts | 138° |
| 2026-05-05 16:53 | 21.97095 | 80.08569 | 36893 ft | 528 kts | 138° |
| 2026-05-05 16:53 | 21.91932 | 80.14190 | 36901 ft | 527 kts | 138° |
| 2026-05-05 16:54 | 21.87609 | 80.18892 | 36899 ft | 527 kts | 138° |
| 2026-05-05 16:54 | 21.82455 | 80.24493 | 36902 ft | 526 kts | 138° |
| 2026-05-05 16:55 | 21.77305 | 80.30084 | 36902 ft | 525 kts | 138° |
| 2026-05-05 16:55 | 21.72159 | 80.35664 | 36909 ft | 525 kts | 138° |
| 2026-05-05 16:56 | 21.67020 | 80.41230 | 36905 ft | 524 kts | 138° |
| 2026-05-05 16:56 | 21.61886 | 80.46784 | 36908 ft | 523 kts | 138° |
| 2026-05-05 16:57 | 21.56760 | 80.52325 | 36908 ft | 522 kts | 138° |
| 2026-05-05 16:57 | 21.51638 | 80.57856 | 36911 ft | 521 kts | 138° |
| 2026-05-05 16:58 | 21.46579 | 80.63355 | 36908 ft | 521 kts | 137° |
| 2026-05-05 16:58 | 21.41511 | 80.68967 | 36910 ft | 520 kts | 137° |
| 2026-05-05 16:59 | 21.36512 | 80.74503 | 36913 ft | 519 kts | 137° |
| 2026-05-05 16:59 | 21.31481 | 80.80055 | 36917 ft | 519 kts | 137° |
| 2026-05-05 17:00 | 21.26410 | 80.85630 | 36915 ft | 519 kts | 137° |
| 2026-05-05 17:00 | 21.21405 | 80.91124 | 36916 ft | 518 kts | 137° |
| 2026-05-05 17:01 | 21.16364 | 80.96653 | 36916 ft | 518 kts | 137° |
| 2026-05-05 17:01 | 21.11290 | 81.02213 | 36916 ft | 519 kts | 137° |
| 2026-05-05 17:02 | 21.06276 | 81.07704 | 36912 ft | 519 kts | 137° |
| 2026-05-05 17:02 | 21.01226 | 81.13228 | 36913 ft | 519 kts | 137° |
| 2026-05-05 17:03 | 20.96171 | 81.18752 | 36912 ft | 519 kts | 137° |
| 2026-05-05 17:03 | 20.91115 | 81.24271 | 36907 ft | 519 kts | 137° |
| 2026-05-05 17:04 | 20.86063 | 81.29781 | 36897 ft | 519 kts | 137° |
| 2026-05-05 17:04 | 20.80969 | 81.35330 | 36893 ft | 519 kts | 137° |
| 2026-05-05 17:05 | 20.75929 | 81.40853 | 36899 ft | 519 kts | 137° |
| 2026-05-05 17:05 | 20.70924 | 81.46423 | 36910 ft | 519 kts | 137° |
| 2026-05-05 17:06 | 20.65921 | 81.51992 | 36907 ft | 519 kts | 137° |
| 2026-05-05 17:06 | 20.60946 | 81.57511 | 36893 ft | 520 kts | 137° |
| 2026-05-05 17:07 | 20.55929 | 81.63063 | 36904 ft | 520 kts | 137° |
| 2026-05-05 17:07 | 20.50910 | 81.68611 | 36911 ft | 520 kts | 137° |
| 2026-05-05 17:08 | 20.45887 | 81.74159 | 36899 ft | 520 kts | 137° |
| 2026-05-05 17:08 | 20.40859 | 81.79706 | 36916 ft | 520 kts | 137° |
| 2026-05-05 17:09 | 20.35829 | 81.85250 | 36917 ft | 520 kts | 137° |
| 2026-05-05 17:09 | 20.30797 | 81.90791 | 36908 ft | 520 kts | 137° |
| 2026-05-05 17:10 | 20.25760 | 81.96332 | 36927 ft | 521 kts | 137° |
| 2026-05-05 17:10 | 20.20726 | 82.01872 | 36928 ft | 521 kts | 137° |
| 2026-05-05 17:11 | 20.15715 | 82.07440 | 36909 ft | 521 kts | 136° |
| 2026-05-05 17:11 | 20.10714 | 82.13009 | 36918 ft | 520 kts | 136° |
| 2026-05-05 17:12 | 20.05710 | 82.18570 | 36907 ft | 520 kts | 136° |
| 2026-05-05 17:12 | 20.00711 | 82.24113 | 36904 ft | 519 kts | 136° |
| 2026-05-05 17:13 | 19.95720 | 82.29640 | 36896 ft | 518 kts | 136° |
| 2026-05-05 17:13 | 19.90727 | 82.35164 | 36890 ft | 518 kts | 136° |
| 2026-05-05 17:14 | 19.85741 | 82.40675 | 36883 ft | 517 kts | 136° |
| 2026-05-05 17:14 | 19.80761 | 82.46175 | 36880 ft | 517 kts | 136° |
| 2026-05-05 17:15 | 19.75780 | 82.51669 | 36874 ft | 516 kts | 136° |
| 2026-05-05 17:15 | 19.70800 | 82.57157 | 36873 ft | 516 kts | 136° |
| 2026-05-05 17:16 | 19.65819 | 82.62642 | 36873 ft | 516 kts | 136° |
| 2026-05-05 17:16 | 19.60838 | 82.68121 | 36872 ft | 516 kts | 136° |
| 2026-05-05 17:17 | 19.55852 | 82.73601 | 36879 ft | 516 kts | 136° |
| 2026-05-05 17:17 | 19.50867 | 82.79074 | 36882 ft | 516 kts | 136° |
| 2026-05-05 17:18 | 19.45881 | 82.84543 | 36893 ft | 516 kts | 136° |
| 2026-05-05 17:18 | 19.40888 | 82.90015 | 36901 ft | 516 kts | 136° |
| 2026-05-05 17:19 | 19.35889 | 82.95488 | 36908 ft | 517 kts | 136° |
| 2026-05-05 17:19 | 19.30924 | 83.00919 | 36917 ft | 517 kts | 136° |
| 2026-05-05 17:20 | 19.25924 | 83.06383 | 36922 ft | 517 kts | 137° |
| 2026-05-05 17:20 | 19.20920 | 83.11846 | 36921 ft | 517 kts | 137° |
| 2026-05-05 17:21 | 19.15919 | 83.17301 | 36925 ft | 517 kts | 137° |
| 2026-05-05 17:22 | 19.08377 | 83.25517 | 36925 ft | 517 kts | 137° |
| 2026-05-05 17:22 | 19.03373 | 83.30961 | 36918 ft | 516 kts | 137° |
| 2026-05-05 17:23 | 18.98373 | 83.36400 | 36916 ft | 516 kts | 137° |
| 2026-05-05 17:23 | 18.93396 | 83.41808 | 36913 ft | 516 kts | 137° |
| 2026-05-05 17:24 | 18.88355 | 83.47275 | 36903 ft | 516 kts | 137° |
| 2026-05-05 17:24 | 18.83383 | 83.52661 | 36900 ft | 515 kts | 137° |
| 2026-05-05 17:25 | 18.78379 | 83.58079 | 36899 ft | 515 kts | 137° |
| 2026-05-05 17:25 | 18.73346 | 83.63525 | 36899 ft | 515 kts | 137° |
| 2026-05-05 17:26 | 18.68343 | 83.68933 | 36887 ft | 515 kts | 137° |
| 2026-05-05 17:26 | 18.63341 | 83.74335 | 36892 ft | 514 kts | 137° |
| 2026-05-05 17:27 | 18.58344 | 83.79726 | 36891 ft | 514 kts | 137° |
| 2026-05-05 17:27 | 18.53379 | 83.85079 | 36890 ft | 514 kts | 137° |
| 2026-05-05 17:28 | 18.48379 | 83.90464 | 36893 ft | 514 kts | 137° |
| 2026-05-05 17:28 | 18.43384 | 83.95839 | 36889 ft | 513 kts | 137° |
| 2026-05-05 17:29 | 18.38385 | 84.01213 | 36888 ft | 513 kts | 137° |
| 2026-05-05 17:29 | 18.33390 | 84.06580 | 36885 ft | 513 kts | 137° |
| 2026-05-05 17:30 | 18.28399 | 84.11937 | 36882 ft | 513 kts | 137° |
| 2026-05-05 17:30 | 18.23383 | 84.17272 | 36881 ft | 513 kts | 137° |
| 2026-05-05 17:31 | 18.18351 | 84.22592 | 36881 ft | 513 kts | 137° |
| 2026-05-05 17:31 | 18.13322 | 84.27909 | 36881 ft | 513 kts | 137° |
| 2026-05-05 17:32 | 18.08297 | 84.33225 | 36877 ft | 513 kts | 137° |
| 2026-05-05 17:32 | 18.03267 | 84.38542 | 36880 ft | 513 kts | 137° |
| 2026-05-05 17:33 | 17.98238 | 84.43853 | 36878 ft | 513 kts | 137° |
| 2026-05-05 17:33 | 17.93210 | 84.49160 | 36876 ft | 513 kts | 137° |
| 2026-05-05 17:34 | 17.88238 | 84.54402 | 36877 ft | 513 kts | 137° |
| 2026-05-05 17:34 | 17.83198 | 84.59712 | 37144 ft | 513 kts | 137° |
| 2026-05-05 17:34 | 17.80678 | 84.62366 | 37373 ft | 512 kts | 137° |
| 2026-05-05 17:35 | 17.78167 | 84.65009 | 37580 ft | 511 kts | 137° |
| 2026-05-05 17:35 | 17.75656 | 84.67650 | 37806 ft | 511 kts | 137° |
| 2026-05-05 17:35 | 17.73146 | 84.70289 | 37985 ft | 511 kts | 137° |
| 2026-05-05 17:35 | 17.70639 | 84.72924 | 38186 ft | 510 kts | 137° |
| 2026-05-05 17:36 | 17.68165 | 84.75524 | 38355 ft | 510 kts | 137° |
| 2026-05-05 17:36 | 17.65663 | 84.78157 | 38532 ft | 510 kts | 137° |
| 2026-05-05 17:36 | 17.63178 | 84.80810 | 38669 ft | 510 kts | 137° |
| 2026-05-05 17:36 | 17.60710 | 84.83471 | 38814 ft | 510 kts | 137° |
| 2026-05-05 17:37 | 17.58240 | 84.86142 | 38870 ft | 510 kts | 136° |
| 2026-05-05 17:37 | 17.54105 | 84.90610 | 38881 ft | 509 kts | 137° |
| 2026-05-05 17:38 | 17.49201 | 84.95888 | 38881 ft | 509 kts | 137° |
| 2026-05-05 17:38 | 17.44259 | 85.01193 | 38883 ft | 509 kts | 137° |
| 2026-05-05 17:39 | 17.39313 | 85.06495 | 38883 ft | 509 kts | 137° |
| 2026-05-05 17:39 | 17.34368 | 85.11793 | 38883 ft | 509 kts | 137° |
| 2026-05-05 17:40 | 17.29422 | 85.17087 | 38884 ft | 508 kts | 137° |
| 2026-05-05 17:40 | 17.24478 | 85.22376 | 38884 ft | 508 kts | 137° |
| 2026-05-05 17:41 | 17.19537 | 85.27658 | 38884 ft | 508 kts | 136° |
| 2026-05-05 17:41 | 17.14612 | 85.32957 | 38882 ft | 508 kts | 135° |
| 2026-05-05 17:42 | 17.09830 | 85.38407 | 38886 ft | 508 kts | 134° |
| 2026-05-05 17:42 | 17.05090 | 85.43883 | 38882 ft | 508 kts | 134° |
| 2026-05-05 17:43 | 17.00331 | 85.49334 | 38882 ft | 508 kts | 134° |
| 2026-05-05 17:43 | 16.95555 | 85.54769 | 38885 ft | 507 kts | 135° |
| 2026-05-05 17:44 | 16.90810 | 85.60157 | 38883 ft | 507 kts | 135° |
| 2026-05-05 17:44 | 16.86037 | 85.65572 | 38882 ft | 506 kts | 135° |
| 2026-05-05 17:45 | 16.81269 | 85.70978 | 38881 ft | 506 kts | 135° |
| 2026-05-05 17:45 | 16.76500 | 85.76382 | 38881 ft | 506 kts | 135° |
| 2026-05-05 17:46 | 16.71734 | 85.81779 | 38882 ft | 506 kts | 135° |
| 2026-05-05 17:46 | 16.66963 | 85.87175 | 38878 ft | 506 kts | 135° |
| 2026-05-05 17:47 | 16.62193 | 85.92568 | 38879 ft | 506 kts | 135° |
| 2026-05-05 17:47 | 16.57416 | 85.97963 | 38882 ft | 506 kts | 135° |
| 2026-05-05 17:48 | 16.52635 | 86.03359 | 38880 ft | 507 kts | 135° |
| 2026-05-05 17:48 | 16.47885 | 86.08717 | 38883 ft | 507 kts | 135° |
| 2026-05-05 17:49 | 16.43101 | 86.14107 | 38880 ft | 507 kts | 135° |
| 2026-05-05 17:49 | 16.38314 | 86.19497 | 38880 ft | 507 kts | 135° |
| 2026-05-05 17:50 | 16.33519 | 86.24892 | 38879 ft | 507 kts | 135° |
| 2026-05-05 17:50 | 16.28725 | 86.30282 | 38878 ft | 507 kts | 134° |
| 2026-05-05 17:51 | 16.23929 | 86.35669 | 38875 ft | 507 kts | 134° |
| 2026-05-05 17:51 | 16.19134 | 86.41052 | 38876 ft | 507 kts | 134° |
| 2026-05-05 17:52 | 16.14373 | 86.46392 | 38875 ft | 507 kts | 134° |
| 2026-05-05 17:52 | 16.09581 | 86.51763 | 38876 ft | 506 kts | 134° |
| 2026-05-05 17:53 | 16.04790 | 86.57129 | 38876 ft | 506 kts | 134° |
| 2026-05-05 17:53 | 16.00000 | 86.62490 | 38874 ft | 506 kts | 134° |
| 2026-05-05 17:54 | 15.95209 | 86.67847 | 38872 ft | 506 kts | 134° |
| 2026-05-05 17:54 | 15.90417 | 86.73201 | 38870 ft | 506 kts | 134° |
| 2026-05-05 17:55 | 15.85627 | 86.78550 | 38873 ft | 506 kts | 134° |
| 2026-05-05 17:55 | 15.80834 | 86.83899 | 38872 ft | 506 kts | 134° |
| 2026-05-05 17:56 | 15.76037 | 86.89246 | 38876 ft | 506 kts | 134° |
| 2026-05-05 17:56 | 15.71244 | 86.94586 | 38876 ft | 505 kts | 134° |
| 2026-05-05 17:57 | 15.66481 | 86.99888 | 38879 ft | 505 kts | 134° |
| 2026-05-05 17:57 | 15.61689 | 87.05220 | 38873 ft | 505 kts | 134° |
| 2026-05-05 17:58 | 15.56901 | 87.10542 | 38870 ft | 505 kts | 134° |
| 2026-05-05 17:58 | 15.52108 | 87.15866 | 38871 ft | 504 kts | 134° |
| 2026-05-05 17:59 | 15.47324 | 87.21177 | 38871 ft | 504 kts | 134° |
| 2026-05-05 17:59 | 15.42537 | 87.26487 | 38870 ft | 504 kts | 135° |
| 2026-05-05 18:00 | 15.37754 | 87.31789 | 38870 ft | 503 kts | 135° |
| 2026-05-05 18:00 | 15.32977 | 87.37080 | 38870 ft | 503 kts | 135° |
| 2026-05-05 18:01 | 15.28194 | 87.42373 | 38871 ft | 503 kts | 135° |
| 2026-05-05 18:01 | 15.23455 | 87.47692 | 38863 ft | 502 kts | 133° |
| 2026-05-05 18:02 | 15.18846 | 87.53066 | 38864 ft | 502 kts | 133° |
| 2026-05-05 18:02 | 15.14219 | 87.58474 | 38864 ft | 502 kts | 133° |
| 2026-05-05 18:03 | 15.09574 | 87.63867 | 38864 ft | 501 kts | 133° |
| 2026-05-05 18:03 | 15.04927 | 87.69240 | 38861 ft | 501 kts | 133° |
| 2026-05-05 18:04 | 15.00276 | 87.74612 | 38859 ft | 501 kts | 133° |
| 2026-05-05 18:04 | 14.95631 | 87.79972 | 38863 ft | 501 kts | 133° |
| 2026-05-05 18:05 | 14.90986 | 87.85331 | 38864 ft | 500 kts | 133° |
| 2026-05-05 18:05 | 14.86342 | 87.90686 | 38858 ft | 500 kts | 133° |
| 2026-05-05 18:06 | 14.81672 | 87.96066 | 38859 ft | 499 kts | 133° |
| 2026-05-05 18:06 | 14.77070 | 88.01364 | 38862 ft | 498 kts | 133° |
| 2026-05-05 18:07 | 14.72446 | 88.06684 | 38857 ft | 497 kts | 133° |
| 2026-05-05 18:07 | 14.67825 | 88.11996 | 38861 ft | 497 kts | 133° |
| 2026-05-05 18:08 | 14.63210 | 88.17299 | 38861 ft | 496 kts | 133° |
| 2026-05-05 18:08 | 14.58601 | 88.22591 | 38861 ft | 495 kts | 133° |
| 2026-05-05 18:09 | 14.53991 | 88.27879 | 38863 ft | 495 kts | 133° |
| 2026-05-05 18:09 | 14.49389 | 88.33157 | 38860 ft | 495 kts | 133° |
| 2026-05-05 18:10 | 14.44784 | 88.38432 | 38858 ft | 495 kts | 133° |
| 2026-05-05 18:10 | 14.40171 | 88.43714 | 38856 ft | 496 kts | 133° |
| 2026-05-05 18:11 | 14.35556 | 88.48995 | 38859 ft | 496 kts | 133° |
| 2026-05-05 18:11 | 14.30934 | 88.54280 | 38860 ft | 496 kts | 133° |
| 2026-05-05 18:12 | 14.26307 | 88.59568 | 38862 ft | 497 kts | 133° |
| 2026-05-05 18:12 | 14.21671 | 88.64862 | 38855 ft | 497 kts | 133° |
| 2026-05-05 18:13 | 14.17034 | 88.70153 | 38857 ft | 498 kts | 133° |
| 2026-05-05 18:13 | 14.12395 | 88.75444 | 38858 ft | 498 kts | 133° |
| 2026-05-05 18:14 | 14.07752 | 88.80736 | 38856 ft | 497 kts | 133° |
| 2026-05-05 18:14 | 14.03112 | 88.86022 | 38858 ft | 497 kts | 133° |
| 2026-05-05 18:15 | 13.98484 | 88.91289 | 38851 ft | 496 kts | 133° |
| 2026-05-05 18:15 | 13.93861 | 88.96547 | 38850 ft | 495 kts | 133° |
| 2026-05-05 18:16 | 13.89242 | 89.01799 | 38850 ft | 494 kts | 133° |
| 2026-05-05 18:16 | 13.84633 | 89.07034 | 38853 ft | 493 kts | 133° |
| 2026-05-05 18:17 | 13.80029 | 89.12262 | 38851 ft | 492 kts | 133° |
| 2026-05-05 18:17 | 13.75434 | 89.17476 | 38849 ft | 492 kts | 133° |
| 2026-05-05 18:18 | 13.70837 | 89.22689 | 38852 ft | 491 kts | 133° |
| 2026-05-05 18:18 | 13.66248 | 89.27889 | 38852 ft | 491 kts | 133° |
| 2026-05-05 18:19 | 13.61653 | 89.33092 | 38850 ft | 491 kts | 133° |
| 2026-05-05 18:19 | 13.57083 | 89.38264 | 38850 ft | 492 kts | 133° |
| 2026-05-05 18:20 | 13.52488 | 89.43462 | 38851 ft | 492 kts | 133° |
| 2026-05-05 18:20 | 13.47887 | 89.48663 | 38855 ft | 492 kts | 133° |
| 2026-05-05 18:21 | 13.43277 | 89.53870 | 38850 ft | 492 kts | 133° |
| 2026-05-05 18:21 | 13.38665 | 89.59077 | 38851 ft | 493 kts | 133° |
| 2026-05-05 18:22 | 13.34052 | 89.64282 | 38854 ft | 493 kts | 133° |
| 2026-05-05 18:22 | 13.29439 | 89.69483 | 38854 ft | 493 kts | 133° |
| 2026-05-05 18:23 | 13.24821 | 89.74687 | 38851 ft | 493 kts | 133° |
| 2026-05-05 18:23 | 13.20206 | 89.79885 | 38850 ft | 493 kts | 133° |
| 2026-05-05 18:24 | 13.15590 | 89.85081 | 38854 ft | 492 kts | 133° |
| 2026-05-05 18:24 | 13.10975 | 89.90271 | 38850 ft | 492 kts | 133° |
| 2026-05-05 18:25 | 13.06391 | 89.95424 | 38849 ft | 492 kts | 133° |
| 2026-05-05 18:25 | 13.01779 | 90.00607 | 38846 ft | 492 kts | 133° |
| 2026-05-05 18:26 | 12.97164 | 90.05789 | 38848 ft | 492 kts | 133° |
| 2026-05-05 18:26 | 12.92544 | 90.10973 | 38846 ft | 492 kts | 133° |
| 2026-05-05 18:27 | 12.87922 | 90.16158 | 38847 ft | 493 kts | 133° |
| 2026-05-05 18:27 | 12.83292 | 90.21347 | 38848 ft | 493 kts | 133° |
| 2026-05-05 18:28 | 12.76340 | 90.29133 | 38853 ft | 494 kts | 133° |
| 2026-05-05 18:28 | 12.71696 | 90.34332 | 38848 ft | 495 kts | 132° |
| 2026-05-05 18:29 | 12.67834 | 90.38651 | 38849 ft | 495 kts | 132° |
| 2026-05-05 18:29 | 12.63178 | 90.43857 | 38853 ft | 496 kts | 132° |
| 2026-05-05 18:30 | 12.58522 | 90.49059 | 38850 ft | 495 kts | 132° |
| 2026-05-05 18:30 | 12.53869 | 90.54255 | 38854 ft | 495 kts | 132° |
| 2026-05-05 18:31 | 12.49214 | 90.59452 | 38851 ft | 495 kts | 132° |
| 2026-05-05 18:31 | 12.44565 | 90.64637 | 38851 ft | 495 kts | 132° |
| 2026-05-05 18:32 | 12.39914 | 90.69822 | 38849 ft | 494 kts | 132° |
| 2026-05-05 18:32 | 12.35268 | 90.74998 | 38847 ft | 494 kts | 132° |
| 2026-05-05 18:33 | 12.30620 | 90.80175 | 38849 ft | 494 kts | 132° |
| 2026-05-05 18:33 | 12.25969 | 90.85350 | 38845 ft | 494 kts | 132° |
| 2026-05-05 18:34 | 12.21322 | 90.90520 | 38846 ft | 494 kts | 132° |
| 2026-05-05 18:34 | 12.16674 | 90.95686 | 38844 ft | 494 kts | 132° |
| 2026-05-05 18:35 | 12.12024 | 91.00851 | 38842 ft | 494 kts | 132° |
| 2026-05-05 18:35 | 12.07368 | 91.06022 | 38840 ft | 494 kts | 132° |
| 2026-05-05 18:36 | 12.02711 | 91.11191 | 38843 ft | 494 kts | 132° |
| 2026-05-05 18:36 | 11.98052 | 91.16359 | 38842 ft | 495 kts | 132° |
| 2026-05-05 18:37 | 11.93388 | 91.21530 | 38845 ft | 495 kts | 132° |
| 2026-05-05 18:37 | 11.88725 | 91.26697 | 38846 ft | 495 kts | 132° |
| 2026-05-05 18:38 | 11.84035 | 91.31846 | 38840 ft | 495 kts | 134° |
| 2026-05-05 18:38 | 11.79107 | 91.36753 | 38841 ft | 495 kts | 136° |
| 2026-05-05 18:39 | 11.74142 | 91.41560 | 38840 ft | 495 kts | 136° |
| 2026-05-05 18:39 | 11.69144 | 91.46461 | 38841 ft | 495 kts | 135° |
| 2026-05-05 18:40 | 11.64207 | 91.51352 | 38838 ft | 495 kts | 135° |
| 2026-05-05 18:40 | 11.59286 | 91.56243 | 38844 ft | 494 kts | 135° |
| 2026-05-05 18:41 | 11.54401 | 91.61094 | 38841 ft | 493 kts | 135° |
| 2026-05-05 18:41 | 11.49485 | 91.65961 | 38841 ft | 492 kts | 135° |
| 2026-05-05 18:42 | 11.44573 | 91.70816 | 38843 ft | 491 kts | 135° |
| 2026-05-05 18:42 | 11.39674 | 91.75666 | 38839 ft | 491 kts | 135° |
| 2026-05-05 18:43 | 11.34746 | 91.80540 | 38839 ft | 490 kts | 135° |
| 2026-05-05 18:43 | 11.29658 | 91.85154 | 38838 ft | 490 kts | 139° |
| 2026-05-05 18:44 | 11.24488 | 91.89589 | 38840 ft | 489 kts | 139° |
| 2026-05-05 18:44 | 11.19266 | 91.94112 | 38840 ft | 489 kts | 139° |
| 2026-05-05 18:45 | 11.14117 | 91.98631 | 38843 ft | 488 kts | 138° |
| 2026-05-05 18:45 | 11.09014 | 92.03127 | 38838 ft | 488 kts | 138° |
| 2026-05-05 18:46 | 11.03881 | 92.07649 | 38836 ft | 488 kts | 138° |
| 2026-05-05 18:46 | 10.98743 | 92.12169 | 38839 ft | 488 kts | 138° |
| 2026-05-05 18:47 | 10.93608 | 92.16685 | 38836 ft | 488 kts | 138° |
| 2026-05-05 18:47 | 10.88473 | 92.21198 | 38838 ft | 488 kts | 138° |
| 2026-05-05 18:48 | 10.83329 | 92.25716 | 38842 ft | 489 kts | 138° |
| 2026-05-05 18:48 | 10.78179 | 92.30237 | 38835 ft | 489 kts | 138° |
| 2026-05-05 18:49 | 10.73032 | 92.34755 | 38837 ft | 489 kts | 138° |
| 2026-05-05 18:49 | 10.67874 | 92.39280 | 38841 ft | 490 kts | 138° |
| 2026-05-05 18:50 | 10.62716 | 92.43802 | 38841 ft | 490 kts | 138° |
| 2026-05-05 18:50 | 10.57548 | 92.48331 | 38839 ft | 490 kts | 138° |
| 2026-05-05 18:51 | 10.52379 | 92.52859 | 38836 ft | 491 kts | 138° |
| 2026-05-05 18:51 | 10.47208 | 92.57386 | 38836 ft | 491 kts | 138° |
| 2026-05-05 18:52 | 10.42035 | 92.61913 | 38840 ft | 491 kts | 138° |
| 2026-05-05 18:52 | 10.36915 | 92.66392 | 38833 ft | 492 kts | 138° |
| 2026-05-05 18:53 | 10.31727 | 92.70928 | 38834 ft | 492 kts | 138° |
| 2026-05-05 18:53 | 10.26532 | 92.75468 | 38835 ft | 492 kts | 138° |
| 2026-05-05 18:54 | 10.21339 | 92.80005 | 38836 ft | 493 kts | 138° |
| 2026-05-05 18:54 | 10.16143 | 92.84541 | 38834 ft | 493 kts | 138° |
| 2026-05-05 18:55 | 10.10946 | 92.89077 | 38836 ft | 493 kts | 138° |
| 2026-05-05 18:55 | 10.05749 | 92.93611 | 38835 ft | 492 kts | 138° |
| 2026-05-05 18:56 | 10.00590 | 92.98110 | 38837 ft | 492 kts | 138° |
| 2026-05-05 18:56 | 9.95397 | 93.02637 | 38835 ft | 492 kts | 138° |
| 2026-05-05 18:57 | 9.90167 | 93.07193 | 38835 ft | 492 kts | 138° |
| 2026-05-05 18:57 | 9.85009 | 93.11686 | 38836 ft | 492 kts | 138° |
| 2026-05-05 18:58 | 9.79811 | 93.16210 | 38837 ft | 492 kts | 138° |
| 2026-05-05 18:58 | 9.74613 | 93.20733 | 38840 ft | 492 kts | 138° |
| 2026-05-05 18:59 | 9.69419 | 93.25251 | 38836 ft | 492 kts | 138° |
| 2026-05-05 18:59 | 9.64220 | 93.29770 | 38837 ft | 492 kts | 138° |
| 2026-05-05 19:00 | 9.59019 | 93.34291 | 38838 ft | 492 kts | 138° |
| 2026-05-05 19:00 | 9.53822 | 93.38805 | 38838 ft | 492 kts | 138° |
| 2026-05-05 19:01 | 9.48623 | 93.43319 | 38839 ft | 492 kts | 138° |
| 2026-05-05 19:01 | 9.43432 | 93.47825 | 38838 ft | 492 kts | 138° |
| 2026-05-05 19:02 | 9.38234 | 93.52335 | 38835 ft | 492 kts | 138° |
| 2026-05-05 19:02 | 9.33076 | 93.56808 | 38838 ft | 492 kts | 138° |
| 2026-05-05 19:03 | 9.27881 | 93.61311 | 38837 ft | 491 kts | 138° |
| 2026-05-05 19:03 | 9.22686 | 93.65812 | 38839 ft | 491 kts | 138° |
| 2026-05-05 19:04 | 9.17497 | 93.70307 | 38848 ft | 491 kts | 138° |
| 2026-05-05 19:04 | 9.12305 | 93.74802 | 38833 ft | 491 kts | 138° |
| 2026-05-05 19:05 | 9.07116 | 93.79294 | 38836 ft | 491 kts | 138° |
| 2026-05-05 19:05 | 9.01925 | 93.83784 | 38835 ft | 491 kts | 137° |
| 2026-05-05 19:06 | 8.96737 | 93.88271 | 38834 ft | 490 kts | 137° |
| 2026-05-05 19:06 | 8.91554 | 93.92752 | 38839 ft | 490 kts | 137° |
| 2026-05-05 19:07 | 8.87245 | 93.96476 | 38833 ft | 490 kts | 137° |
| 2026-05-05 19:07 | 8.81923 | 94.02368 | 38850 ft | 486 kts | 122° |
| 2026-05-05 19:08 | 8.78235 | 94.08100 | 38834 ft | 485 kts | 120° |
| 2026-05-05 19:08 | 8.74675 | 94.13903 | 38834 ft | 486 kts | 120° |
| 2026-05-05 19:09 | 8.71115 | 94.19703 | 38841 ft | 486 kts | 120° |
| 2026-05-05 19:09 | 8.67542 | 94.25484 | 38840 ft | 485 kts | 121° |
| 2026-05-05 19:10 | 8.63954 | 94.31266 | 38833 ft | 485 kts | 121° |
| 2026-05-05 19:10 | 8.60368 | 94.37041 | 38834 ft | 485 kts | 121° |
| 2026-05-05 19:11 | 8.56785 | 94.42818 | 38833 ft | 485 kts | 120° |
| 2026-05-05 19:11 | 8.53554 | 94.48784 | 38837 ft | 484 kts | 116° |
| 2026-05-05 19:12 | 8.50525 | 94.54844 | 38834 ft | 483 kts | 116° |
| 2026-05-05 19:12 | 8.47455 | 94.60872 | 38834 ft | 483 kts | 116° |
| 2026-05-05 19:13 | 8.44323 | 94.66893 | 38834 ft | 483 kts | 116° |
| 2026-05-05 19:13 | 8.41714 | 94.71875 | 38835 ft | 483 kts | 116° |
| 2026-05-05 19:14 | 8.38572 | 94.77868 | 38836 ft | 483 kts | 116° |
| 2026-05-05 19:14 | 8.35432 | 94.83861 | 38837 ft | 482 kts | 116° |
| 2026-05-05 19:15 | 8.32297 | 94.89847 | 38834 ft | 482 kts | 116° |
| 2026-05-05 19:15 | 8.29161 | 94.95831 | 38834 ft | 482 kts | 116° |
| 2026-05-05 19:16 | 8.26025 | 95.01813 | 38836 ft | 482 kts | 116° |
| 2026-05-05 19:16 | 8.22888 | 95.07794 | 38833 ft | 482 kts | 116° |
| 2026-05-05 19:17 | 8.19754 | 95.13765 | 38834 ft | 482 kts | 116° |
| 2026-05-05 19:17 | 8.16619 | 95.19739 | 38837 ft | 481 kts | 116° |
| 2026-05-05 19:18 | 8.13489 | 95.25697 | 38833 ft | 480 kts | 116° |
| 2026-05-05 19:18 | 8.10362 | 95.31650 | 38839 ft | 480 kts | 116° |
| 2026-05-05 19:19 | 8.07236 | 95.37597 | 38835 ft | 479 kts | 116° |
| 2026-05-05 19:19 | 8.04117 | 95.43527 | 38836 ft | 478 kts | 116° |
| 2026-05-05 19:20 | 8.01003 | 95.49447 | 38835 ft | 478 kts | 116° |
| 2026-05-05 19:20 | 7.97887 | 95.55361 | 38833 ft | 477 kts | 116° |
| 2026-05-05 19:21 | 7.94764 | 95.61266 | 38830 ft | 477 kts | 116° |
| 2026-05-05 19:21 | 7.91640 | 95.67169 | 38830 ft | 477 kts | 116° |
| 2026-05-05 19:22 | 7.88517 | 95.73073 | 38831 ft | 477 kts | 116° |
| 2026-05-05 19:22 | 7.85392 | 95.78979 | 38832 ft | 477 kts | 116° |
| 2026-05-05 19:23 | 7.82266 | 95.84885 | 38836 ft | 477 kts | 116° |
| 2026-05-05 19:23 | 7.79140 | 95.90788 | 38832 ft | 477 kts | 116° |
| 2026-05-05 19:24 | 7.76009 | 95.96698 | 38833 ft | 478 kts | 116° |
| 2026-05-05 19:24 | 7.72874 | 96.02613 | 38832 ft | 478 kts | 116° |
| 2026-05-05 19:25 | 7.69740 | 96.08525 | 38827 ft | 479 kts | 116° |
| 2026-05-05 19:25 | 7.66599 | 96.14446 | 38830 ft | 479 kts | 116° |
| 2026-05-05 19:26 | 7.63452 | 96.20377 | 38831 ft | 479 kts | 116° |
| 2026-05-05 19:26 | 7.60308 | 96.26300 | 38831 ft | 480 kts | 116° |
| 2026-05-05 19:27 | 7.57161 | 96.32226 | 38833 ft | 480 kts | 116° |
| 2026-05-05 19:27 | 7.54009 | 96.38158 | 38832 ft | 480 kts | 116° |
| 2026-05-05 19:28 | 7.50860 | 96.44083 | 38831 ft | 480 kts | 116° |
| 2026-05-05 19:28 | 7.47704 | 96.50020 | 38833 ft | 480 kts | 116° |
| 2026-05-05 19:29 | 7.44547 | 96.55954 | 38833 ft | 481 kts | 116° |
| 2026-05-05 19:29 | 7.41386 | 96.61894 | 38830 ft | 481 kts | 116° |
| 2026-05-05 19:30 | 7.38219 | 96.67844 | 38837 ft | 482 kts | 116° |
| 2026-05-05 19:30 | 7.35051 | 96.73792 | 38835 ft | 482 kts | 116° |
| 2026-05-05 19:31 | 7.31883 | 96.79740 | 38835 ft | 482 kts | 116° |
| 2026-05-05 19:31 | 7.28730 | 96.85710 | 38832 ft | 482 kts | 114° |
| 2026-05-05 19:32 | 7.26529 | 96.92064 | 38834 ft | 480 kts | 104° |
| 2026-05-05 19:32 | 7.24880 | 96.98586 | 38978 ft | 481 kts | 102° |
| 2026-05-05 19:33 | 7.24091 | 97.01865 | 39152 ft | 481 kts | 102° |
| 2026-05-05 19:33 | 7.23307 | 97.05133 | 39310 ft | 480 kts | 102° |
| 2026-05-05 19:33 | 7.22520 | 97.08402 | 39472 ft | 480 kts | 102° |
| 2026-05-05 19:33 | 7.21727 | 97.11673 | 39620 ft | 480 kts | 102° |
| 2026-05-05 19:34 | 7.20933 | 97.14933 | 39781 ft | 480 kts | 102° |
| 2026-05-05 19:34 | 7.20135 | 97.18195 | 39914 ft | 480 kts | 102° |
| 2026-05-05 19:34 | 7.19336 | 97.21452 | 40064 ft | 479 kts | 103° |
| 2026-05-05 19:35 | 7.17740 | 97.27954 | 40328 ft | 478 kts | 103° |
| 2026-05-05 19:35 | 7.16940 | 97.31209 | 40470 ft | 478 kts | 103° |
| 2026-05-05 19:35 | 7.16141 | 97.34463 | 40593 ft | 478 kts | 103° |
| 2026-05-05 19:35 | 7.15344 | 97.37710 | 40717 ft | 478 kts | 103° |
| 2026-05-05 19:36 | 7.14546 | 97.40955 | 40814 ft | 478 kts | 103° |
| 2026-05-05 19:36 | 7.12950 | 97.47451 | 40837 ft | 477 kts | 103° |
| 2026-05-05 19:37 | 7.11355 | 97.53935 | 40835 ft | 477 kts | 103° |
| 2026-05-05 19:37 | 7.09758 | 97.60427 | 40835 ft | 478 kts | 103° |
| 2026-05-05 19:38 | 7.08160 | 97.66915 | 40837 ft | 478 kts | 103° |
| 2026-05-05 19:38 | 7.06561 | 97.73408 | 40837 ft | 478 kts | 103° |
| 2026-05-05 19:39 | 7.04959 | 97.79903 | 40835 ft | 478 kts | 103° |
| 2026-05-05 19:39 | 7.03358 | 97.86393 | 40834 ft | 478 kts | 103° |
| 2026-05-05 19:40 | 7.01756 | 97.92883 | 40836 ft | 478 kts | 103° |
| 2026-05-05 19:40 | 7.00113 | 97.99362 | 40834 ft | 478 kts | 106° |
| 2026-05-05 19:41 | 6.97926 | 98.05683 | 40836 ft | 478 kts | 109° |
| 2026-05-05 19:41 | 6.95619 | 98.11968 | 40834 ft | 479 kts | 109° |
| 2026-05-05 19:42 | 6.93292 | 98.18247 | 40834 ft | 479 kts | 109° |
| 2026-05-05 19:42 | 6.90970 | 98.24529 | 40835 ft | 479 kts | 109° |
| 2026-05-05 19:43 | 6.88653 | 98.30816 | 40832 ft | 479 kts | 109° |
| 2026-05-05 19:43 | 6.86337 | 98.37102 | 40832 ft | 479 kts | 109° |
| 2026-05-05 19:44 | 6.84018 | 98.43395 | 40831 ft | 480 kts | 109° |
| 2026-05-05 19:44 | 6.81697 | 98.49687 | 40833 ft | 480 kts | 109° |
| 2026-05-05 19:45 | 6.79375 | 98.55980 | 40831 ft | 480 kts | 109° |
| 2026-05-05 19:45 | 6.77050 | 98.62277 | 40831 ft | 480 kts | 109° |
| 2026-05-05 19:46 | 6.74726 | 98.68570 | 40834 ft | 480 kts | 109° |
| 2026-05-05 19:46 | 6.72399 | 98.74867 | 40831 ft | 480 kts | 109° |
| 2026-05-05 19:47 | 6.70068 | 98.81172 | 40829 ft | 481 kts | 109° |
| 2026-05-05 19:47 | 6.67737 | 98.87474 | 40830 ft | 481 kts | 109° |
| 2026-05-05 19:48 | 6.65406 | 98.93775 | 40828 ft | 481 kts | 109° |
| 2026-05-05 19:48 | 6.63073 | 99.00078 | 40828 ft | 481 kts | 109° |
| 2026-05-05 19:49 | 6.60738 | 99.06382 | 40830 ft | 481 kts | 109° |
| 2026-05-05 19:49 | 6.58402 | 99.12688 | 40828 ft | 481 kts | 109° |
| 2026-05-05 19:50 | 6.56068 | 99.18983 | 40834 ft | 481 kts | 109° |
| 2026-05-05 19:50 | 6.53730 | 99.25290 | 40834 ft | 481 kts | 109° |
| 2026-05-05 19:51 | 6.51393 | 99.31589 | 40838 ft | 481 kts | 109° |
| 2026-05-05 19:51 | 6.49053 | 99.37899 | 40830 ft | 481 kts | 109° |
| 2026-05-05 19:52 | 6.46715 | 99.44199 | 40832 ft | 481 kts | 109° |
| 2026-05-05 19:52 | 6.44372 | 99.50502 | 40845 ft | 481 kts | 109° |
| 2026-05-05 19:53 | 6.42046 | 99.56759 | 40846 ft | 481 kts | 109° |
| 2026-05-05 19:53 | 6.39707 | 99.63052 | 40853 ft | 481 kts | 109° |
| 2026-05-05 19:54 | 6.37364 | 99.69351 | 40858 ft | 481 kts | 109° |
| 2026-05-05 19:54 | 6.34276 | 99.75299 | 40856 ft | 482 kts | 125° |
| 2026-05-05 19:55 | 6.29838 | 99.80374 | 40855 ft | 484 kts | 133° |
| 2026-05-05 19:55 | 6.25111 | 99.85205 | 40850 ft | 485 kts | 134° |
| 2026-05-05 19:56 | 6.21122 | 99.89226 | 40843 ft | 485 kts | 134° |
| 2026-05-05 19:56 | 6.16404 | 99.94013 | 40837 ft | 485 kts | 134° |
| 2026-05-05 19:57 | 6.11669 | 99.98848 | 40830 ft | 485 kts | 134° |
| 2026-05-05 19:57 | 6.06911 | 100.03722 | 40828 ft | 485 kts | 134° |
| 2026-05-05 19:58 | 6.02181 | 100.08555 | 40826 ft | 485 kts | 134° |
| 2026-05-05 19:58 | 5.97441 | 100.13395 | 40831 ft | 485 kts | 134° |
| 2026-05-05 19:59 | 5.92741 | 100.18195 | 40831 ft | 485 kts | 134° |
| 2026-05-05 19:59 | 5.88002 | 100.23033 | 40830 ft | 486 kts | 134° |
| 2026-05-05 20:00 | 5.83267 | 100.27869 | 40831 ft | 486 kts | 134° |
| 2026-05-05 20:00 | 5.78528 | 100.32705 | 40833 ft | 486 kts | 134° |
| 2026-05-05 20:01 | 5.73787 | 100.37543 | 40831 ft | 486 kts | 134° |
| 2026-05-05 20:01 | 5.69043 | 100.42384 | 40835 ft | 486 kts | 134° |
| 2026-05-05 20:02 | 5.64300 | 100.47220 | 40833 ft | 486 kts | 134° |
| 2026-05-05 20:02 | 5.59553 | 100.52061 | 40833 ft | 486 kts | 134° |
| 2026-05-05 20:03 | 5.54804 | 100.56902 | 40838 ft | 486 kts | 134° |
| 2026-05-05 20:03 | 5.50058 | 100.61739 | 40834 ft | 486 kts | 134° |
| 2026-05-05 20:04 | 5.45314 | 100.66573 | 40849 ft | 486 kts | 134° |
| 2026-05-05 20:04 | 5.40470 | 100.71311 | 40854 ft | 487 kts | 140° |
| 2026-05-05 20:05 | 5.34693 | 100.74817 | 40853 ft | 488 kts | 158° |
| 2026-05-05 20:05 | 5.28122 | 100.76494 | 40849 ft | 489 kts | 169° |
| 2026-05-05 20:06 | 5.21398 | 100.77563 | 40852 ft | 489 kts | 171° |
| 2026-05-05 20:06 | 5.14663 | 100.78562 | 40847 ft | 489 kts | 171° |
| 2026-05-05 20:07 | 5.07933 | 100.79593 | 40848 ft | 489 kts | 170° |
| 2026-05-05 20:07 | 5.01207 | 100.80651 | 40845 ft | 489 kts | 170° |
| 2026-05-05 20:08 | 4.94490 | 100.81718 | 40845 ft | 489 kts | 170° |
| 2026-05-05 20:08 | 4.87772 | 100.82784 | 40846 ft | 488 kts | 170° |
| 2026-05-05 20:09 | 4.81062 | 100.83841 | 40842 ft | 488 kts | 170° |
| 2026-05-05 20:09 | 4.74352 | 100.84899 | 40843 ft | 488 kts | 170° |
| 2026-05-05 20:10 | 4.67646 | 100.85957 | 40847 ft | 488 kts | 170° |
| 2026-05-05 20:10 | 4.60946 | 100.87015 | 40853 ft | 487 kts | 170° |
| 2026-05-05 20:11 | 4.54249 | 100.88072 | 40847 ft | 487 kts | 170° |
| 2026-05-05 20:11 | 4.47581 | 100.89234 | 40833 ft | 486 kts | 165° |
| 2026-05-05 20:12 | 4.41292 | 100.91619 | 40834 ft | 483 kts | 154° |
| 2026-05-05 20:12 | 4.35229 | 100.94516 | 40832 ft | 483 kts | 153° |
| 2026-05-05 20:13 | 4.29207 | 100.97491 | 40838 ft | 482 kts | 153° |
| 2026-05-05 20:13 | 4.23229 | 101.00431 | 40830 ft | 482 kts | 153° |
| 2026-05-05 20:14 | 4.17168 | 101.03389 | 40834 ft | 481 kts | 153° |
| 2026-05-05 20:14 | 4.11186 | 101.06301 | 40834 ft | 481 kts | 153° |
| 2026-05-05 20:15 | 4.05124 | 101.09250 | 40834 ft | 481 kts | 153° |
| 2026-05-05 20:15 | 3.99143 | 101.12160 | 40829 ft | 481 kts | 153° |
| 2026-05-05 20:16 | 3.93120 | 101.15091 | 40830 ft | 481 kts | 153° |
| 2026-05-05 20:16 | 3.87090 | 101.18024 | 40832 ft | 482 kts | 153° |
| 2026-05-05 20:17 | 3.81064 | 101.20956 | 40834 ft | 482 kts | 153° |
| 2026-05-05 20:17 | 3.75038 | 101.23899 | 40834 ft | 482 kts | 153° |
| 2026-05-05 20:18 | 3.69088 | 101.26978 | 40838 ft | 482 kts | 151° |
| 2026-05-05 20:18 | 3.63160 | 101.30109 | 40830 ft | 482 kts | 152° |
| 2026-05-05 20:19 | 3.57229 | 101.33220 | 40830 ft | 481 kts | 152° |
| 2026-05-05 20:19 | 3.51287 | 101.36317 | 40828 ft | 481 kts | 152° |
| 2026-05-05 20:20 | 3.45342 | 101.39409 | 40834 ft | 481 kts | 152° |
| 2026-05-05 20:20 | 3.39400 | 101.42499 | 40831 ft | 481 kts | 152° |
| 2026-05-05 20:21 | 3.33455 | 101.45591 | 40828 ft | 481 kts | 152° |
| 2026-05-05 20:21 | 3.27454 | 101.48576 | 40827 ft | 482 kts | 154° |
| 2026-05-05 20:22 | 3.21338 | 101.51332 | 40831 ft | 482 kts | 155° |
| 2026-05-05 20:22 | 3.15218 | 101.54085 | 40828 ft | 483 kts | 155° |
| 2026-05-05 20:23 | 3.09108 | 101.56881 | 40829 ft | 483 kts | 154° |
| 2026-05-05 20:23 | 3.03006 | 101.59697 | 40828 ft | 483 kts | 154° |
| 2026-05-05 20:24 | 2.96901 | 101.62517 | 40828 ft | 483 kts | 154° |
| 2026-05-05 20:24 | 2.90932 | 101.65273 | 40808 ft | 484 kts | 154° |
| 2026-05-05 20:25 | 2.84823 | 101.68092 | 40800 ft | 484 kts | 154° |
| 2026-05-05 20:25 | 2.78716 | 101.70909 | 40803 ft | 484 kts | 154° |
| 2026-05-05 20:26 | 2.72606 | 101.73727 | 40799 ft | 483 kts | 154° |
| 2026-05-05 20:26 | 2.66528 | 101.76621 | 40803 ft | 483 kts | 153° |
| 2026-05-05 20:27 | 2.60494 | 101.79588 | 40804 ft | 483 kts | 153° |
| 2026-05-05 20:27 | 2.54699 | 101.82973 | 40812 ft | 482 kts | 141° |
| 2026-05-05 20:28 | 2.50041 | 101.87752 | 40812 ft | 481 kts | 128° |
| 2026-05-05 20:28 | 2.45966 | 101.93066 | 40822 ft | 481 kts | 126° |
| 2026-05-05 20:29 | 2.41978 | 101.98443 | 40825 ft | 482 kts | 126° |
| 2026-05-05 20:29 | 2.37972 | 102.03816 | 40846 ft | 482 kts | 126° |
| 2026-05-05 20:30 | 2.33942 | 102.09177 | 40848 ft | 482 kts | 126° |
| 2026-05-05 20:30 | 2.29909 | 102.14529 | 40853 ft | 482 kts | 126° |
| 2026-05-05 20:31 | 2.25873 | 102.19883 | 40857 ft | 482 kts | 126° |
| 2026-05-05 20:31 | 2.21834 | 102.25242 | 40855 ft | 483 kts | 126° |
| 2026-05-05 20:32 | 2.17793 | 102.30604 | 40605 ft | 483 kts | 126° |
| 2026-05-05 20:32 | 2.15771 | 102.33287 | 40347 ft | 483 kts | 127° |
| 2026-05-05 20:32 | 2.13754 | 102.35963 | 39835 ft | 482 kts | 127° |
| 2026-05-05 20:32 | 2.11735 | 102.38644 | 39246 ft | 483 kts | 127° |
| 2026-05-05 20:33 | 2.09714 | 102.41326 | 38634 ft | 484 kts | 127° |
| 2026-05-05 20:33 | 2.07687 | 102.44016 | 37968 ft | 485 kts | 127° |
| 2026-05-05 20:33 | 2.05657 | 102.46707 | 37324 ft | 485 kts | 127° |
| 2026-05-05 20:33 | 2.03627 | 102.49399 | 36693 ft | 485 kts | 127° |
| 2026-05-05 20:34 | 2.01596 | 102.52092 | 36034 ft | 486 kts | 127° |
| 2026-05-05 20:34 | 1.99562 | 102.54794 | 35357 ft | 487 kts | 127° |
| 2026-05-05 20:34 | 1.97519 | 102.57506 | 34640 ft | 490 kts | 127° |
| 2026-05-05 20:34 | 1.95462 | 102.60236 | 33878 ft | 493 kts | 127° |
| 2026-05-05 20:35 | 1.93387 | 102.62989 | 33025 ft | 497 kts | 127° |
| 2026-05-05 20:35 | 1.91304 | 102.65751 | 32194 ft | 499 kts | 127° |
| 2026-05-05 20:35 | 1.89213 | 102.68526 | 31374 ft | 501 kts | 127° |
| 2026-05-05 20:35 | 1.87115 | 102.71313 | 30637 ft | 501 kts | 126° |
| 2026-05-05 20:36 | 1.85025 | 102.74088 | 30025 ft | 499 kts | 126° |
| 2026-05-05 20:36 | 1.82942 | 102.76853 | 29359 ft | 496 kts | 126° |
| 2026-05-05 20:36 | 1.80875 | 102.79595 | 28726 ft | 491 kts | 126° |
| 2026-05-05 20:36 | 1.78830 | 102.82309 | 28118 ft | 487 kts | 126° |
| 2026-05-05 20:37 | 1.76801 | 102.85003 | 27519 ft | 483 kts | 126° |
| 2026-05-05 20:37 | 1.75464 | 102.86777 | 27101 ft | 481 kts | 126° |
| 2026-05-05 20:37 | 1.73024 | 102.90491 | 26322 ft | 476 kts | 120° |
| 2026-05-05 20:37 | 1.71403 | 102.93360 | 25728 ft | 472 kts | 118° |
| 2026-05-05 20:38 | 1.70362 | 102.95267 | 25343 ft | 470 kts | 118° |
| 2026-05-05 20:38 | 1.68828 | 102.98138 | 24759 ft | 467 kts | 117° |
| 2026-05-05 20:38 | 1.67316 | 103.00999 | 24175 ft | 464 kts | 117° |
| 2026-05-05 20:38 | 1.65815 | 103.03845 | 23591 ft | 462 kts | 117° |
| 2026-05-05 20:39 | 1.64319 | 103.06675 | 22954 ft | 459 kts | 117° |
| 2026-05-05 20:39 | 1.62706 | 103.09404 | 22354 ft | 454 kts | 125° |
| 2026-05-05 20:39 | 1.60578 | 103.11708 | 21763 ft | 451 kts | 140° |
| 2026-05-05 20:39 | 1.57931 | 103.13353 | 21173 ft | 448 kts | 154° |
| 2026-05-05 20:40 | 1.55078 | 103.14569 | 20579 ft | 444 kts | 157° |
| 2026-05-05 20:40 | 1.52214 | 103.15707 | 20002 ft | 441 kts | 157° |
| 2026-05-05 20:40 | 1.49378 | 103.16830 | 19412 ft | 437 kts | 157° |
| 2026-05-05 20:40 | 1.46563 | 103.17946 | 18820 ft | 434 kts | 157° |
| 2026-05-05 20:41 | 1.43764 | 103.19058 | 18220 ft | 431 kts | 157° |
| 2026-05-05 20:41 | 1.40995 | 103.20158 | 17793 ft | 423 kts | 157° |
| 2026-05-05 20:41 | 1.38311 | 103.21225 | 17668 ft | 407 kts | 157° |
| 2026-05-05 20:41 | 1.35730 | 103.22251 | 17540 ft | 392 kts | 157° |
| 2026-05-05 20:42 | 1.33236 | 103.23243 | 17398 ft | 379 kts | 157° |
| 2026-05-05 20:42 | 1.30826 | 103.24203 | 17232 ft | 367 kts | 157° |
| 2026-05-05 20:42 | 1.28491 | 103.25132 | 17069 ft | 356 kts | 157° |
| 2026-05-05 20:42 | 1.26227 | 103.26033 | 16900 ft | 345 kts | 157° |
| 2026-05-05 20:43 | 1.24081 | 103.27029 | 16695 ft | 336 kts | 150° |
| 2026-05-05 20:43 | 1.22061 | 103.28170 | 16342 ft | 332 kts | 148° |
| 2026-05-05 20:43 | 1.20077 | 103.29326 | 15969 ft | 329 kts | 148° |
| 2026-05-05 20:43 | 1.18104 | 103.30476 | 15586 ft | 327 kts | 148° |
| 2026-05-05 20:44 | 1.16143 | 103.31615 | 15210 ft | 325 kts | 148° |
| 2026-05-05 20:44 | 1.14196 | 103.32744 | 14862 ft | 322 kts | 148° |
| 2026-05-05 20:44 | 1.12264 | 103.33863 | 14503 ft | 320 kts | 148° |
| 2026-05-05 20:44 | 1.10338 | 103.34978 | 14122 ft | 319 kts | 148° |
| 2026-05-05 20:45 | 1.06523 | 103.37185 | 13392 ft | 315 kts | 148° |
| 2026-05-05 20:45 | 1.04643 | 103.38274 | 13052 ft | 310 kts | 148° |
| 2026-05-05 20:45 | 1.02808 | 103.39335 | 12918 ft | 299 kts | 148° |
| 2026-05-05 20:46 | 1.01038 | 103.40358 | 12806 ft | 288 kts | 148° |
| 2026-05-05 20:46 | 0.99342 | 103.41360 | 12651 ft | 279 kts | 146° |
| 2026-05-05 20:46 | 0.97971 | 103.42679 | 12351 ft | 273 kts | 120° |
| 2026-05-05 20:46 | 0.97374 | 103.44444 | 12050 ft | 268 kts | 97° |
| 2026-05-05 20:47 | 0.97205 | 103.46290 | 11738 ft | 266 kts | 94° |
| 2026-05-05 20:47 | 0.97083 | 103.48121 | 11461 ft | 263 kts | 94° |
| 2026-05-05 20:47 | 0.96955 | 103.49939 | 11182 ft | 261 kts | 94° |
| 2026-05-05 20:47 | 0.96822 | 103.51725 | 10904 ft | 261 kts | 94° |
| 2026-05-05 20:48 | 0.96683 | 103.53529 | 10629 ft | 260 kts | 95° |
| 2026-05-05 20:48 | 0.96542 | 103.55330 | 10348 ft | 260 kts | 95° |
| 2026-05-05 20:48 | 0.96479 | 103.57132 | 10060 ft | 260 kts | 86° |
| 2026-05-05 20:48 | 0.96669 | 103.58922 | 9789 ft | 260 kts | 82° |
| 2026-05-05 20:49 | 0.96924 | 103.60718 | 9490 ft | 261 kts | 82° |
| 2026-05-05 20:49 | 0.97182 | 103.62508 | 9204 ft | 260 kts | 82° |
| 2026-05-05 20:49 | 0.97435 | 103.64292 | 8907 ft | 259 kts | 82° |
| 2026-05-05 20:49 | 0.97686 | 103.66072 | 8641 ft | 258 kts | 82° |
| 2026-05-05 20:50 | 0.97934 | 103.67840 | 8363 ft | 257 kts | 82° |
| 2026-05-05 20:50 | 0.98181 | 103.69605 | 8082 ft | 256 kts | 82° |
| 2026-05-05 20:50 | 0.98518 | 103.71339 | 7794 ft | 255 kts | 72° |
| 2026-05-05 20:50 | 0.99311 | 103.72920 | 7523 ft | 254 kts | 58° |
| 2026-05-05 20:51 | 1.00266 | 103.74403 | 7230 ft | 254 kts | 57° |
| 2026-05-05 20:51 | 1.01230 | 103.75874 | 6981 ft | 253 kts | 57° |
| 2026-05-05 20:51 | 1.02186 | 103.77344 | 6710 ft | 251 kts | 57° |
| 2026-05-05 20:51 | 1.03133 | 103.78807 | 6445 ft | 250 kts | 57° |
| 2026-05-05 20:52 | 1.04075 | 103.80267 | 6153 ft | 249 kts | 57° |
| 2026-05-05 20:52 | 1.05010 | 103.81720 | 5878 ft | 248 kts | 57° |
| 2026-05-05 20:52 | 1.05936 | 103.83160 | 5687 ft | 243 kts | 57° |
| 2026-05-05 20:52 | 1.06831 | 103.84552 | 5543 ft | 233 kts | 57° |
| 2026-05-05 20:53 | 1.07784 | 103.85815 | 5433 ft | 223 kts | 42° |
| 2026-05-05 20:53 | 1.09012 | 103.86689 | 5355 ft | 211 kts | 28° |
| 2026-05-05 20:53 | 1.10322 | 103.87318 | 5144 ft | 207 kts | 23° |
| 2026-05-05 20:53 | 1.11642 | 103.87877 | 4868 ft | 205 kts | 23° |
| 2026-05-05 20:54 | 1.12956 | 103.88435 | 4576 ft | 205 kts | 23° |
| 2026-05-05 20:54 | 1.14265 | 103.88993 | 4272 ft | 204 kts | 23° |
| 2026-05-05 20:54 | 1.15569 | 103.89547 | 3986 ft | 203 kts | 23° |
| 2026-05-05 20:54 | 1.16859 | 103.90094 | 3718 ft | 200 kts | 23° |
| 2026-05-05 20:55 | 1.18128 | 103.90633 | 3463 ft | 197 kts | 23° |
| 2026-05-05 20:55 | 1.19382 | 103.91165 | 3222 ft | 195 kts | 23° |
| 2026-05-05 20:55 | 1.20630 | 103.91695 | 2978 ft | 195 kts | 23° |
| 2026-05-05 20:55 | 1.21876 | 103.92223 | 2721 ft | 195 kts | 23° |
| 2026-05-05 20:56 | 1.23121 | 103.92751 | 2477 ft | 194 kts | 23° |
| 2026-05-05 20:56 | 1.24354 | 103.93274 | 2242 ft | 190 kts | 23° |
| 2026-05-05 20:56 | 1.25537 | 103.93776 | 2003 ft | 180 kts | 23° |
| 2026-05-05 20:56 | 1.26657 | 103.94251 | 1769 ft | 171 kts | 24° |
| 2026-05-05 20:57 | 1.27728 | 103.94706 | 1555 ft | 163 kts | 23° |
| 2026-05-05 20:57 | 1.28749 | 103.95139 | 1322 ft | 158 kts | 23° |
| 2026-05-05 20:57 | 1.29755 | 103.95566 | 1117 ft | 155 kts | 23° |
| 2026-05-05 20:57 | 1.30733 | 103.95981 | 919 ft | 151 kts | 23° |
| 2026-05-05 20:58 | 1.31696 | 103.96391 | 728 ft | 150 kts | 23° |
| 2026-05-05 20:58 | 1.32653 | 103.96800 | 540 ft | 149 kts | 23° |
| 2026-05-05 20:58 | 1.33604 | 103.97206 | 350 ft | 149 kts | 23° |
| 2026-05-05 20:58 | 1.34559 | 103.97602 | 152 ft | 148 kts | 22° |
| 2026-05-05 20:59 | 1.35503 | 103.97999 | 38 ft | 142 kts | 23° |
| 2026-05-05 20:59 | 1.36230 | 103.98311 | 37 ft | 75 kts | 22° |
| 2026-05-05 20:59 | 1.36570 | 103.98459 | 37 ft | 35 kts | 30° |
| 2026-05-05 20:59 | 1.36723 | 103.98590 | 37 ft | 25 kts | 52° |
| 2026-05-05 21:00 | 1.36801 | 103.98694 | 37 ft | 14 kts | 53° |
| 2026-05-05 21:00 | 1.36843 | 103.98767 | 37 ft | 10 kts | 77° |
| 2026-05-05 21:00 | 1.36819 | 103.98831 | 37 ft | 10 kts | 137° |
| 2026-05-05 21:00 | 1.36775 | 103.98833 | 37 ft | 5 kts | 197° |
| 2026-05-05 21:01 | 1.36738 | 103.98816 | 37 ft | 8 kts | 204° |
| 2026-05-05 21:01 | 1.36667 | 103.98784 | 37 ft | 14 kts | 204° |
| 2026-05-05 21:01 | 1.36573 | 103.98742 | 37 ft | 16 kts | 203° |
| 2026-05-05 21:01 | 1.36465 | 103.98697 | 37 ft | 18 kts | 201° |
| 2026-05-05 21:02 | 1.36348 | 103.98649 | 37 ft | 18 kts | 202° |
| 2026-05-05 21:02 | 1.36255 | 103.98611 | 37 ft | 14 kts | 202° |
| 2026-05-05 21:02 | 1.36184 | 103.98581 | 37 ft | 11 kts | 203° |
| 2026-05-05 21:02 | 1.36105 | 103.98547 | 37 ft | 13 kts | 203° |
| 2026-05-05 21:03 | 1.36026 | 103.98514 | 37 ft | 9 kts | 203° |
| 2026-05-05 21:03 | 1.35978 | 103.98498 | 37 ft | 2 kts | 179° |
| 2026-05-05 21:03 | 1.35957 | 103.98509 | 37 ft | 4 kts | 146° |
| 2026-05-05 21:03 | 1.35929 | 103.98534 | 37 ft | 7 kts | 137° |
| 2026-05-05 21:04 | 1.35897 | 103.98566 | 37 ft | 3 kts | 135° |
| 2026-05-05 21:04 | 1.35892 | 103.98570 | 37 ft | 0 kts | 135° |
| 2026-05-05 21:04 | 1.35889 | 103.98573 | 37 ft | 0 kts | 135° |